KNE8282 OEJN-VGHS
Flight info
| Callsign | KNE8282 |
|---|---|
| Flight time | 6h 4m |
| Altitude | 33000 |
| Route | EGREP T532 KODIS Y214 RAPMA DCT DEGNO DCT MIDGU M440 DEMKI/N0499F350 M440 TULBU N881 RASKI L639 BPL A791 CEA A462 IKOGU |
| Aircraft | A339/H-SADE1E2E3GHIJ3J5M1P2RWXY/LB2D1 |
Departure
| Time | 2026-04-29 10:16 |
|---|---|
| Airport | King Abdulaziz International Airport (OEJN) |
Arrival
| Time | 2026-04-29 16:21 |
|---|---|
| Airport | Hazrat Shahjalal International Airport (VGHS) |
| Time | Latitude | Longitude | Altitude | Speed | Heading |
|---|---|---|---|---|---|
| 2026-04-29 08:33 | 21.70166 | 39.14292 | 64 ft | 0 kts | 250° |
| 2026-04-29 09:48 | 21.70170 | 39.14303 | 64 ft | 2 kts | 250° |
| 2026-04-29 09:48 | 21.70175 | 39.14319 | 64 ft | 2 kts | 250° |
| 2026-04-29 09:49 | 21.70181 | 39.14334 | 64 ft | 2 kts | 250° |
| 2026-04-29 09:49 | 21.70184 | 39.14344 | 64 ft | 2 kts | 248° |
| 2026-04-29 09:49 | 21.70193 | 39.14357 | 64 ft | 2 kts | 211° |
| 2026-04-29 09:49 | 21.70207 | 39.14363 | 64 ft | 2 kts | 182° |
| 2026-04-29 09:50 | 21.70219 | 39.14362 | 64 ft | 0 kts | 160° |
| 2026-04-29 09:50 | 21.70223 | 39.14360 | 64 ft | 0 kts | 159° |
| 2026-04-29 09:58 | 21.70216 | 39.14363 | 64 ft | 2 kts | 160° |
| 2026-04-29 09:58 | 21.70188 | 39.14374 | 64 ft | 6 kts | 160° |
| 2026-04-29 09:59 | 21.70132 | 39.14396 | 64 ft | 10 kts | 160° |
| 2026-04-29 09:59 | 21.70050 | 39.14428 | 64 ft | 14 kts | 160° |
| 2026-04-29 09:59 | 21.69950 | 39.14467 | 64 ft | 16 kts | 160° |
| 2026-04-29 09:59 | 21.69869 | 39.14499 | 64 ft | 11 kts | 160° |
| 2026-04-29 10:00 | 21.69788 | 39.14542 | 64 ft | 14 kts | 143° |
| 2026-04-29 10:00 | 21.69696 | 39.14592 | 64 ft | 15 kts | 159° |
| 2026-04-29 10:00 | 21.69595 | 39.14632 | 64 ft | 15 kts | 159° |
| 2026-04-29 10:00 | 21.69488 | 39.14675 | 64 ft | 17 kts | 159° |
| 2026-04-29 10:01 | 21.69371 | 39.14721 | 64 ft | 18 kts | 160° |
| 2026-04-29 10:01 | 21.69247 | 39.14769 | 64 ft | 20 kts | 160° |
| 2026-04-29 10:01 | 21.69111 | 39.14823 | 64 ft | 21 kts | 159° |
| 2026-04-29 10:01 | 21.68971 | 39.14878 | 64 ft | 20 kts | 160° |
| 2026-04-29 10:02 | 21.68839 | 39.14930 | 64 ft | 18 kts | 160° |
| 2026-04-29 10:02 | 21.68744 | 39.14968 | 64 ft | 10 kts | 160° |
| 2026-04-29 10:02 | 21.68681 | 39.15001 | 64 ft | 10 kts | 130° |
| 2026-04-29 10:02 | 21.68678 | 39.15083 | 64 ft | 12 kts | 74° |
| 2026-04-29 10:03 | 21.68707 | 39.15170 | 64 ft | 11 kts | 69° |
| 2026-04-29 10:03 | 21.68714 | 39.15237 | 64 ft | 9 kts | 119° |
| 2026-04-29 10:03 | 21.68644 | 39.15281 | 64 ft | 13 kts | 159° |
| 2026-04-29 10:03 | 21.68550 | 39.15318 | 64 ft | 14 kts | 160° |
| 2026-04-29 10:04 | 21.68452 | 39.15357 | 64 ft | 15 kts | 159° |
| 2026-04-29 10:04 | 21.68338 | 39.15402 | 64 ft | 19 kts | 159° |
| 2026-04-29 10:04 | 21.68201 | 39.15457 | 64 ft | 21 kts | 160° |
| 2026-04-29 10:04 | 21.68058 | 39.15512 | 65 ft | 21 kts | 160° |
| 2026-04-29 10:05 | 21.67902 | 39.15574 | 64 ft | 25 kts | 160° |
| 2026-04-29 10:05 | 21.67733 | 39.15640 | 65 ft | 26 kts | 159° |
| 2026-04-29 10:05 | 21.67559 | 39.15709 | 65 ft | 26 kts | 160° |
| 2026-04-29 10:05 | 21.67393 | 39.15773 | 65 ft | 24 kts | 160° |
| 2026-04-29 10:06 | 21.67240 | 39.15834 | 65 ft | 22 kts | 159° |
| 2026-04-29 10:06 | 21.67093 | 39.15892 | 65 ft | 22 kts | 159° |
| 2026-04-29 10:06 | 21.66957 | 39.15946 | 65 ft | 19 kts | 159° |
| 2026-04-29 10:06 | 21.66844 | 39.15991 | 65 ft | 13 kts | 159° |
| 2026-04-29 10:07 | 21.66753 | 39.16027 | 65 ft | 13 kts | 159° |
| 2026-04-29 10:07 | 21.66661 | 39.16064 | 65 ft | 14 kts | 159° |
| 2026-04-29 10:07 | 21.66565 | 39.16101 | 65 ft | 15 kts | 160° |
| 2026-04-29 10:07 | 21.66453 | 39.16145 | 65 ft | 18 kts | 159° |
| 2026-04-29 10:08 | 21.66327 | 39.16195 | 65 ft | 19 kts | 160° |
| 2026-04-29 10:08 | 21.66205 | 39.16242 | 65 ft | 16 kts | 160° |
| 2026-04-29 10:08 | 21.66109 | 39.16280 | 65 ft | 8 kts | 160° |
| 2026-04-29 10:08 | 21.66080 | 39.16311 | 65 ft | 6 kts | 91° |
| 2026-04-29 10:09 | 21.66080 | 39.16318 | 65 ft | 0 kts | 82° |
| 2026-04-29 10:12 | 21.66081 | 39.16321 | 65 ft | 1 kts | 82° |
| 2026-04-29 10:12 | 21.66083 | 39.16340 | 65 ft | 4 kts | 79° |
| 2026-04-29 10:12 | 21.66098 | 39.16394 | 65 ft | 10 kts | 71° |
| 2026-04-29 10:13 | 21.66126 | 39.16458 | 65 ft | 8 kts | 48° |
| 2026-04-29 10:13 | 21.66182 | 39.16464 | 65 ft | 9 kts | 344° |
| 2026-04-29 10:13 | 21.66202 | 39.16457 | 65 ft | 0 kts | 341° |
| 2026-04-29 10:13 | 21.66205 | 39.16456 | 65 ft | 0 kts | 340° |
| 2026-04-29 10:15 | 21.66227 | 39.16448 | 65 ft | 10 kts | 340° |
| 2026-04-29 10:15 | 21.66444 | 39.16362 | 65 ft | 62 kts | 339° |
| 2026-04-29 10:15 | 21.67033 | 39.16129 | 65 ft | 116 kts | 340° |
| 2026-04-29 10:15 | 21.67947 | 39.15768 | 65 ft | 161 kts | 340° |
| 2026-04-29 10:16 | 21.69119 | 39.15300 | 190 ft | 188 kts | 338° |
| 2026-04-29 10:16 | 21.69920 | 39.14984 | 559 ft | 185 kts | 340° |
| 2026-04-29 10:16 | 21.71510 | 39.14375 | 1392 ft | 177 kts | 340° |
| 2026-04-29 10:16 | 21.72688 | 39.13917 | 1646 ft | 184 kts | 340° |
| 2026-04-29 10:17 | 21.73930 | 39.13427 | 1845 ft | 195 kts | 340° |
| 2026-04-29 10:17 | 21.75236 | 39.12912 | 2043 ft | 206 kts | 340° |
| 2026-04-29 10:17 | 21.76626 | 39.12362 | 2265 ft | 218 kts | 340° |
| 2026-04-29 10:17 | 21.78107 | 39.11778 | 2499 ft | 231 kts | 340° |
| 2026-04-29 10:18 | 21.79669 | 39.11163 | 2739 ft | 244 kts | 339° |
| 2026-04-29 10:18 | 21.81310 | 39.10514 | 2986 ft | 258 kts | 339° |
| 2026-04-29 10:18 | 21.83008 | 39.09840 | 3360 ft | 264 kts | 339° |
| 2026-04-29 10:18 | 21.84750 | 39.09154 | 3840 ft | 267 kts | 339° |
| 2026-04-29 10:19 | 21.86512 | 39.08458 | 4332 ft | 269 kts | 339° |
| 2026-04-29 10:19 | 21.88265 | 39.07765 | 4806 ft | 272 kts | 339° |
| 2026-04-29 10:19 | 21.90056 | 39.07022 | 5279 ft | 274 kts | 336° |
| 2026-04-29 10:19 | 21.91799 | 39.06203 | 5715 ft | 277 kts | 335° |
| 2026-04-29 10:20 | 21.93564 | 39.05357 | 5959 ft | 276 kts | 335° |
| 2026-04-29 10:20 | 21.95299 | 39.04525 | 5987 ft | 269 kts | 335° |
| 2026-04-29 10:20 | 21.97023 | 39.03700 | 5990 ft | 268 kts | 335° |
| 2026-04-29 10:20 | 21.98727 | 39.02884 | 5996 ft | 268 kts | 335° |
| 2026-04-29 10:21 | 22.00446 | 39.02060 | 6000 ft | 268 kts | 335° |
| 2026-04-29 10:21 | 22.02171 | 39.01277 | 5996 ft | 269 kts | 343° |
| 2026-04-29 10:21 | 22.04035 | 39.01250 | 6059 ft | 279 kts | 19° |
| 2026-04-29 10:21 | 22.05635 | 39.02425 | 6552 ft | 279 kts | 51° |
| 2026-04-29 10:22 | 22.06617 | 39.04210 | 7057 ft | 278 kts | 63° |
| 2026-04-29 10:22 | 22.07479 | 39.06078 | 7454 ft | 282 kts | 63° |
| 2026-04-29 10:22 | 22.08373 | 39.07960 | 7871 ft | 285 kts | 62° |
| 2026-04-29 10:22 | 22.09302 | 39.09863 | 8438 ft | 286 kts | 62° |
| 2026-04-29 10:23 | 22.10238 | 39.11745 | 9118 ft | 286 kts | 62° |
| 2026-04-29 10:23 | 22.11180 | 39.13621 | 9869 ft | 285 kts | 62° |
| 2026-04-29 10:23 | 22.12122 | 39.15488 | 10589 ft | 283 kts | 62° |
| 2026-04-29 10:23 | 22.13058 | 39.17338 | 10991 ft | 285 kts | 61° |
| 2026-04-29 10:24 | 22.14029 | 39.19246 | 11236 ft | 293 kts | 62° |
| 2026-04-29 10:24 | 22.15014 | 39.21188 | 11321 ft | 305 kts | 61° |
| 2026-04-29 10:24 | 22.16055 | 39.23239 | 11418 ft | 316 kts | 61° |
| 2026-04-29 10:24 | 22.17134 | 39.25364 | 11609 ft | 326 kts | 61° |
| 2026-04-29 10:25 | 22.18235 | 39.27529 | 11804 ft | 337 kts | 61° |
| 2026-04-29 10:25 | 22.19384 | 39.29791 | 11989 ft | 348 kts | 61° |
| 2026-04-29 10:25 | 22.20572 | 39.32135 | 12224 ft | 361 kts | 61° |
| 2026-04-29 10:25 | 22.21792 | 39.34547 | 12442 ft | 372 kts | 61° |
| 2026-04-29 10:26 | 22.23037 | 39.37008 | 12688 ft | 383 kts | 60° |
| 2026-04-29 10:26 | 22.24338 | 39.39575 | 12885 ft | 395 kts | 60° |
| 2026-04-29 10:26 | 22.25677 | 39.42214 | 13092 ft | 407 kts | 60° |
| 2026-04-29 10:26 | 22.27057 | 39.44935 | 13318 ft | 416 kts | 60° |
| 2026-04-29 10:27 | 22.29845 | 39.50453 | 14171 ft | 424 kts | 60° |
| 2026-04-29 10:27 | 22.31264 | 39.53269 | 14633 ft | 428 kts | 60° |
| 2026-04-29 10:27 | 22.32687 | 39.56095 | 15096 ft | 432 kts | 60° |
| 2026-04-29 10:28 | 22.34138 | 39.58966 | 15541 ft | 436 kts | 60° |
| 2026-04-29 10:28 | 22.35585 | 39.61829 | 15985 ft | 441 kts | 60° |
| 2026-04-29 10:28 | 22.37071 | 39.64769 | 16471 ft | 444 kts | 60° |
| 2026-04-29 10:28 | 22.38548 | 39.67701 | 16914 ft | 448 kts | 60° |
| 2026-04-29 10:29 | 22.40035 | 39.70655 | 17312 ft | 451 kts | 60° |
| 2026-04-29 10:29 | 22.41532 | 39.73629 | 17729 ft | 455 kts | 60° |
| 2026-04-29 10:29 | 22.43039 | 39.76626 | 18218 ft | 457 kts | 60° |
| 2026-04-29 10:29 | 22.44575 | 39.79681 | 18692 ft | 460 kts | 58° |
| 2026-04-29 10:30 | 22.46296 | 39.82585 | 19150 ft | 460 kts | 51° |
| 2026-04-29 10:30 | 22.48338 | 39.85227 | 19596 ft | 459 kts | 43° |
| 2026-04-29 10:30 | 22.50645 | 39.87594 | 20047 ft | 460 kts | 38° |
| 2026-04-29 10:30 | 22.53039 | 39.89870 | 20500 ft | 461 kts | 37° |
| 2026-04-29 10:31 | 22.55461 | 39.92142 | 20938 ft | 464 kts | 37° |
| 2026-04-29 10:31 | 22.57898 | 39.94437 | 21354 ft | 466 kts | 37° |
| 2026-04-29 10:31 | 22.60376 | 39.96781 | 21751 ft | 469 kts | 37° |
| 2026-04-29 10:31 | 22.62824 | 39.99107 | 22167 ft | 471 kts | 37° |
| 2026-04-29 10:32 | 22.65269 | 40.01438 | 22557 ft | 472 kts | 37° |
| 2026-04-29 10:32 | 22.67733 | 40.03793 | 22890 ft | 475 kts | 37° |
| 2026-04-29 10:32 | 22.70254 | 40.06203 | 23166 ft | 480 kts | 37° |
| 2026-04-29 10:32 | 22.72741 | 40.08583 | 23450 ft | 483 kts | 37° |
| 2026-04-29 10:33 | 22.75269 | 40.11005 | 23702 ft | 488 kts | 37° |
| 2026-04-29 10:33 | 22.77839 | 40.13467 | 23965 ft | 491 kts | 37° |
| 2026-04-29 10:33 | 22.80386 | 40.15910 | 24208 ft | 495 kts | 37° |
| 2026-04-29 10:33 | 22.82986 | 40.18405 | 24448 ft | 498 kts | 37° |
| 2026-04-29 10:34 | 22.85568 | 40.20884 | 24701 ft | 501 kts | 37° |
| 2026-04-29 10:34 | 22.88209 | 40.23421 | 24899 ft | 506 kts | 37° |
| 2026-04-29 10:34 | 22.90826 | 40.25938 | 25110 ft | 510 kts | 37° |
| 2026-04-29 10:34 | 22.93509 | 40.28518 | 25372 ft | 512 kts | 37° |
| 2026-04-29 10:35 | 22.96154 | 40.31064 | 25620 ft | 514 kts | 37° |
| 2026-04-29 10:35 | 22.98853 | 40.33664 | 25820 ft | 518 kts | 37° |
| 2026-04-29 10:35 | 23.01534 | 40.36247 | 26024 ft | 521 kts | 37° |
| 2026-04-29 10:35 | 23.04248 | 40.38863 | 26240 ft | 523 kts | 37° |
| 2026-04-29 10:36 | 23.06988 | 40.41506 | 26430 ft | 527 kts | 38° |
| 2026-04-29 10:36 | 23.09739 | 40.44160 | 26597 ft | 530 kts | 38° |
| 2026-04-29 10:36 | 23.12499 | 40.46825 | 26788 ft | 533 kts | 37° |
| 2026-04-29 10:36 | 23.15265 | 40.49498 | 26967 ft | 535 kts | 37° |
| 2026-04-29 10:37 | 23.18077 | 40.52217 | 27131 ft | 538 kts | 38° |
| 2026-04-29 10:37 | 23.20859 | 40.54911 | 27302 ft | 541 kts | 38° |
| 2026-04-29 10:37 | 23.23690 | 40.57656 | 27483 ft | 543 kts | 38° |
| 2026-04-29 10:37 | 23.26314 | 40.60634 | 27629 ft | 551 kts | 48° |
| 2026-04-29 10:38 | 23.28482 | 40.64064 | 27779 ft | 557 kts | 58° |
| 2026-04-29 10:38 | 23.30138 | 40.67883 | 27922 ft | 560 kts | 68° |
| 2026-04-29 10:38 | 23.31513 | 40.71822 | 28086 ft | 562 kts | 69° |
| 2026-04-29 10:38 | 23.32841 | 40.75813 | 28246 ft | 564 kts | 70° |
| 2026-04-29 10:39 | 23.34175 | 40.79828 | 28384 ft | 566 kts | 70° |
| 2026-04-29 10:39 | 23.35526 | 40.83846 | 28535 ft | 568 kts | 70° |
| 2026-04-29 10:39 | 23.36896 | 40.87870 | 28759 ft | 569 kts | 69° |
| 2026-04-29 10:39 | 23.38277 | 40.91897 | 28964 ft | 570 kts | 69° |
| 2026-04-29 10:40 | 23.39663 | 40.95913 | 29191 ft | 570 kts | 69° |
| 2026-04-29 10:40 | 23.41066 | 40.99963 | 29478 ft | 568 kts | 69° |
| 2026-04-29 10:40 | 23.42450 | 41.03971 | 29806 ft | 567 kts | 69° |
| 2026-04-29 10:40 | 23.43830 | 41.07967 | 30108 ft | 565 kts | 69° |
| 2026-04-29 10:41 | 23.45200 | 41.11945 | 30383 ft | 565 kts | 69° |
| 2026-04-29 10:41 | 23.46590 | 41.15979 | 30671 ft | 564 kts | 69° |
| 2026-04-29 10:41 | 23.47960 | 41.19950 | 30968 ft | 562 kts | 69° |
| 2026-04-29 10:41 | 23.49318 | 41.23901 | 31261 ft | 561 kts | 69° |
| 2026-04-29 10:42 | 23.50691 | 41.27902 | 31522 ft | 561 kts | 69° |
| 2026-04-29 10:42 | 23.52049 | 41.31849 | 31735 ft | 562 kts | 69° |
| 2026-04-29 10:42 | 23.53413 | 41.35831 | 31966 ft | 562 kts | 69° |
| 2026-04-29 10:42 | 23.54767 | 41.39784 | 32195 ft | 562 kts | 69° |
| 2026-04-29 10:43 | 23.56143 | 41.43803 | 32382 ft | 563 kts | 69° |
| 2026-04-29 10:43 | 23.57500 | 41.47768 | 32571 ft | 564 kts | 69° |
| 2026-04-29 10:43 | 23.58865 | 41.51762 | 32769 ft | 565 kts | 69° |
| 2026-04-29 10:43 | 23.60228 | 41.55755 | 32982 ft | 565 kts | 69° |
| 2026-04-29 10:44 | 23.61602 | 41.59788 | 33034 ft | 565 kts | 69° |
| 2026-04-29 10:44 | 23.64323 | 41.67784 | 33034 ft | 565 kts | 69° |
| 2026-04-29 10:45 | 23.67049 | 41.75805 | 33035 ft | 565 kts | 70° |
| 2026-04-29 10:45 | 23.69663 | 41.83896 | 33036 ft | 566 kts | 71° |
| 2026-04-29 10:46 | 23.72215 | 41.91993 | 33037 ft | 566 kts | 71° |
| 2026-04-29 10:46 | 23.74785 | 42.00091 | 33038 ft | 566 kts | 70° |
| 2026-04-29 10:47 | 23.77518 | 42.08136 | 33041 ft | 567 kts | 69° |
| 2026-04-29 10:47 | 23.80295 | 42.16172 | 33043 ft | 566 kts | 69° |
| 2026-04-29 10:48 | 23.83036 | 42.24184 | 33042 ft | 567 kts | 69° |
| 2026-04-29 10:48 | 23.85790 | 42.32274 | 33045 ft | 567 kts | 69° |
| 2026-04-29 10:49 | 23.88512 | 42.40286 | 33047 ft | 566 kts | 69° |
| 2026-04-29 10:49 | 23.91244 | 42.48344 | 33044 ft | 568 kts | 69° |
| 2026-04-29 10:50 | 23.93964 | 42.56385 | 33050 ft | 567 kts | 69° |
| 2026-04-29 10:50 | 23.96692 | 42.64469 | 33049 ft | 567 kts | 69° |
| 2026-04-29 10:51 | 23.99418 | 42.72554 | 33048 ft | 567 kts | 70° |
| 2026-04-29 10:51 | 24.01918 | 42.80742 | 33049 ft | 567 kts | 77° |
| 2026-04-29 10:52 | 24.02950 | 42.89231 | 33053 ft | 565 kts | 91° |
| 2026-04-29 10:52 | 24.02307 | 42.97681 | 33054 ft | 558 kts | 105° |
| 2026-04-29 10:53 | 24.00283 | 43.05808 | 33057 ft | 554 kts | 111° |
| 2026-04-29 10:53 | 23.98013 | 43.13823 | 33050 ft | 554 kts | 111° |
| 2026-04-29 10:54 | 23.95787 | 43.21848 | 33049 ft | 552 kts | 111° |
| 2026-04-29 10:54 | 23.93600 | 43.29837 | 33047 ft | 551 kts | 110° |
| 2026-04-29 10:55 | 23.91402 | 43.37879 | 33053 ft | 550 kts | 111° |
| 2026-04-29 10:55 | 23.89216 | 43.45867 | 33056 ft | 548 kts | 111° |
| 2026-04-29 10:56 | 23.87035 | 43.53816 | 33057 ft | 547 kts | 111° |
| 2026-04-29 10:56 | 23.84855 | 43.61751 | 33049 ft | 547 kts | 111° |
| 2026-04-29 10:57 | 23.82687 | 43.69629 | 33042 ft | 546 kts | 111° |
| 2026-04-29 10:57 | 23.80506 | 43.77533 | 33039 ft | 544 kts | 111° |
| 2026-04-29 10:58 | 23.78424 | 43.85484 | 33037 ft | 546 kts | 108° |
| 2026-04-29 10:58 | 23.77032 | 43.93610 | 33034 ft | 549 kts | 101° |
| 2026-04-29 10:59 | 23.76334 | 44.01905 | 33030 ft | 550 kts | 97° |
| 2026-04-29 10:59 | 23.75747 | 44.10261 | 33028 ft | 551 kts | 97° |
| 2026-04-29 11:00 | 23.75148 | 44.18542 | 33026 ft | 550 kts | 98° |
| 2026-04-29 11:00 | 23.74524 | 44.26842 | 33022 ft | 551 kts | 97° |
| 2026-04-29 11:01 | 23.73893 | 44.35152 | 33024 ft | 551 kts | 98° |
| 2026-04-29 11:01 | 23.73259 | 44.43447 | 33024 ft | 550 kts | 97° |
| 2026-04-29 11:02 | 23.72619 | 44.51756 | 33028 ft | 551 kts | 97° |
| 2026-04-29 11:02 | 23.71977 | 44.60050 | 33025 ft | 549 kts | 97° |
| 2026-04-29 11:03 | 23.71332 | 44.68335 | 33016 ft | 548 kts | 98° |
| 2026-04-29 11:03 | 23.70679 | 44.76637 | 33018 ft | 548 kts | 98° |
| 2026-04-29 11:04 | 23.70027 | 44.84889 | 33014 ft | 548 kts | 98° |
| 2026-04-29 11:04 | 23.69363 | 44.93155 | 33008 ft | 548 kts | 98° |
| 2026-04-29 11:05 | 23.68689 | 45.01472 | 33001 ft | 547 kts | 98° |
| 2026-04-29 11:05 | 23.68023 | 45.09714 | 32994 ft | 547 kts | 98° |
| 2026-04-29 11:06 | 23.67356 | 45.17945 | 32995 ft | 547 kts | 98° |
| 2026-04-29 11:06 | 23.66680 | 45.26149 | 32992 ft | 546 kts | 98° |
| 2026-04-29 11:07 | 23.65994 | 45.34407 | 32990 ft | 548 kts | 98° |
| 2026-04-29 11:07 | 23.65307 | 45.42654 | 32982 ft | 549 kts | 98° |
| 2026-04-29 11:08 | 23.64619 | 45.50941 | 32978 ft | 549 kts | 98° |
| 2026-04-29 11:08 | 23.63929 | 45.59165 | 32967 ft | 548 kts | 98° |
| 2026-04-29 11:09 | 23.63227 | 45.67411 | 32955 ft | 549 kts | 98° |
| 2026-04-29 11:09 | 23.62514 | 45.75676 | 32947 ft | 548 kts | 98° |
| 2026-04-29 11:10 | 23.61802 | 45.83926 | 32938 ft | 548 kts | 98° |
| 2026-04-29 11:10 | 23.61086 | 45.92184 | 32945 ft | 548 kts | 98° |
| 2026-04-29 11:11 | 23.60373 | 46.00409 | 32933 ft | 547 kts | 98° |
| 2026-04-29 11:11 | 23.59651 | 46.08651 | 32944 ft | 547 kts | 98° |
| 2026-04-29 11:12 | 23.58925 | 46.16898 | 32956 ft | 547 kts | 98° |
| 2026-04-29 11:12 | 23.58197 | 46.25159 | 32962 ft | 547 kts | 98° |
| 2026-04-29 11:13 | 23.57465 | 46.33371 | 32980 ft | 547 kts | 98° |
| 2026-04-29 11:13 | 23.56731 | 46.41589 | 32998 ft | 548 kts | 98° |
| 2026-04-29 11:14 | 23.55993 | 46.49812 | 33017 ft | 547 kts | 98° |
| 2026-04-29 11:14 | 23.55243 | 46.58032 | 33009 ft | 547 kts | 98° |
| 2026-04-29 11:15 | 23.54486 | 46.66273 | 32983 ft | 547 kts | 99° |
| 2026-04-29 11:15 | 23.53733 | 46.74466 | 32957 ft | 545 kts | 98° |
| 2026-04-29 11:16 | 23.52971 | 46.82703 | 32936 ft | 546 kts | 99° |
| 2026-04-29 11:16 | 23.52205 | 46.90910 | 32927 ft | 546 kts | 98° |
| 2026-04-29 11:17 | 23.51439 | 46.99124 | 32912 ft | 546 kts | 98° |
| 2026-04-29 11:17 | 23.50668 | 47.07343 | 32910 ft | 546 kts | 98° |
| 2026-04-29 11:18 | 23.49894 | 47.15539 | 32901 ft | 546 kts | 98° |
| 2026-04-29 11:18 | 23.49114 | 47.23745 | 32904 ft | 546 kts | 98° |
| 2026-04-29 11:19 | 23.48332 | 47.31937 | 32902 ft | 546 kts | 98° |
| 2026-04-29 11:19 | 23.47549 | 47.40106 | 32900 ft | 544 kts | 98° |
| 2026-04-29 11:20 | 23.46764 | 47.48264 | 32889 ft | 544 kts | 98° |
| 2026-04-29 11:20 | 23.45967 | 47.56452 | 32882 ft | 544 kts | 98° |
| 2026-04-29 11:21 | 23.45161 | 47.64621 | 32872 ft | 544 kts | 98° |
| 2026-04-29 11:21 | 23.44361 | 47.72786 | 32867 ft | 544 kts | 99° |
| 2026-04-29 11:22 | 23.43555 | 47.80933 | 32862 ft | 544 kts | 98° |
| 2026-04-29 11:22 | 23.42749 | 47.89068 | 32861 ft | 543 kts | 99° |
| 2026-04-29 11:23 | 23.41931 | 47.97259 | 32854 ft | 543 kts | 98° |
| 2026-04-29 11:23 | 23.41113 | 48.05423 | 32846 ft | 543 kts | 98° |
| 2026-04-29 11:24 | 23.40298 | 48.13565 | 32840 ft | 543 kts | 98° |
| 2026-04-29 11:24 | 23.39473 | 48.21679 | 32844 ft | 542 kts | 100° |
| 2026-04-29 11:25 | 23.38033 | 48.29668 | 32837 ft | 539 kts | 108° |
| 2026-04-29 11:25 | 23.35578 | 48.37308 | 32838 ft | 534 kts | 117° |
| 2026-04-29 11:26 | 23.30228 | 48.47782 | 32829 ft | 527 kts | 127° |
| 2026-04-29 11:26 | 23.26264 | 48.54478 | 32821 ft | 526 kts | 127° |
| 2026-04-29 11:27 | 23.22301 | 48.61197 | 32814 ft | 528 kts | 126° |
| 2026-04-29 11:27 | 23.18363 | 48.67897 | 32802 ft | 528 kts | 126° |
| 2026-04-29 11:28 | 23.14419 | 48.74616 | 32791 ft | 526 kts | 126° |
| 2026-04-29 11:28 | 23.10480 | 48.81323 | 32790 ft | 526 kts | 126° |
| 2026-04-29 11:29 | 23.06544 | 48.88011 | 32783 ft | 526 kts | 127° |
| 2026-04-29 11:29 | 23.02966 | 48.94928 | 32772 ft | 530 kts | 118° |
| 2026-04-29 11:30 | 23.00374 | 49.02385 | 32768 ft | 534 kts | 109° |
| 2026-04-29 11:30 | 22.98861 | 49.10272 | 32762 ft | 537 kts | 99° |
| 2026-04-29 11:31 | 22.98250 | 49.18351 | 32761 ft | 538 kts | 96° |
| 2026-04-29 11:31 | 22.97759 | 49.26439 | 32756 ft | 538 kts | 96° |
| 2026-04-29 11:32 | 22.97241 | 49.34540 | 32757 ft | 538 kts | 96° |
| 2026-04-29 11:32 | 22.96704 | 49.42603 | 32755 ft | 537 kts | 96° |
| 2026-04-29 11:33 | 22.96156 | 49.50667 | 32756 ft | 537 kts | 96° |
| 2026-04-29 11:33 | 22.95607 | 49.58673 | 32757 ft | 536 kts | 96° |
| 2026-04-29 11:34 | 22.95048 | 49.66772 | 32763 ft | 536 kts | 96° |
| 2026-04-29 11:34 | 22.94492 | 49.74788 | 32771 ft | 535 kts | 96° |
| 2026-04-29 11:35 | 22.93932 | 49.82784 | 32769 ft | 534 kts | 96° |
| 2026-04-29 11:35 | 22.93364 | 49.90838 | 32766 ft | 533 kts | 96° |
| 2026-04-29 11:36 | 22.92797 | 49.98816 | 32760 ft | 533 kts | 96° |
| 2026-04-29 11:36 | 22.92222 | 50.06819 | 32753 ft | 532 kts | 96° |
| 2026-04-29 11:37 | 22.91647 | 50.14775 | 32750 ft | 532 kts | 96° |
| 2026-04-29 11:37 | 22.91064 | 50.22782 | 32750 ft | 533 kts | 96° |
| 2026-04-29 11:38 | 22.90480 | 50.30773 | 32749 ft | 533 kts | 96° |
| 2026-04-29 11:38 | 22.89892 | 50.38762 | 32748 ft | 533 kts | 96° |
| 2026-04-29 11:39 | 22.89302 | 50.46698 | 32746 ft | 533 kts | 96° |
| 2026-04-29 11:39 | 22.88705 | 50.54690 | 32746 ft | 533 kts | 96° |
| 2026-04-29 11:40 | 22.88103 | 50.62697 | 32744 ft | 531 kts | 96° |
| 2026-04-29 11:40 | 22.87503 | 50.70629 | 32741 ft | 532 kts | 96° |
| 2026-04-29 11:41 | 22.86896 | 50.78594 | 32741 ft | 530 kts | 96° |
| 2026-04-29 11:41 | 22.86283 | 50.86549 | 32738 ft | 530 kts | 96° |
| 2026-04-29 11:42 | 22.85668 | 50.94503 | 32735 ft | 530 kts | 96° |
| 2026-04-29 11:42 | 22.85056 | 51.02400 | 32733 ft | 530 kts | 96° |
| 2026-04-29 11:43 | 22.84434 | 51.10334 | 32730 ft | 530 kts | 96° |
| 2026-04-29 11:43 | 22.83809 | 51.18277 | 32728 ft | 530 kts | 96° |
| 2026-04-29 11:44 | 22.83179 | 51.26225 | 32726 ft | 530 kts | 96° |
| 2026-04-29 11:44 | 22.82545 | 51.34177 | 32721 ft | 530 kts | 96° |
| 2026-04-29 11:45 | 22.81908 | 51.42112 | 32717 ft | 530 kts | 96° |
| 2026-04-29 11:45 | 22.81270 | 51.50025 | 32714 ft | 529 kts | 96° |
| 2026-04-29 11:46 | 22.80627 | 51.57942 | 32720 ft | 529 kts | 96° |
| 2026-04-29 11:46 | 22.79979 | 51.65876 | 32723 ft | 529 kts | 97° |
| 2026-04-29 11:47 | 22.79331 | 51.73768 | 32724 ft | 528 kts | 97° |
| 2026-04-29 11:47 | 22.78671 | 51.81718 | 32723 ft | 528 kts | 97° |
| 2026-04-29 11:48 | 22.78014 | 51.89608 | 32725 ft | 528 kts | 96° |
| 2026-04-29 11:48 | 22.77354 | 51.97480 | 32726 ft | 528 kts | 96° |
| 2026-04-29 11:49 | 22.76685 | 52.05421 | 32731 ft | 528 kts | 96° |
| 2026-04-29 11:49 | 22.76017 | 52.13309 | 32732 ft | 528 kts | 96° |
| 2026-04-29 11:50 | 22.75343 | 52.21212 | 32731 ft | 528 kts | 96° |
| 2026-04-29 11:50 | 22.74666 | 52.29098 | 32734 ft | 528 kts | 96° |
| 2026-04-29 11:51 | 22.73985 | 52.36998 | 32726 ft | 528 kts | 96° |
| 2026-04-29 11:51 | 22.73304 | 52.44861 | 32732 ft | 528 kts | 96° |
| 2026-04-29 11:52 | 22.72615 | 52.52764 | 32732 ft | 528 kts | 96° |
| 2026-04-29 11:52 | 22.71921 | 52.60670 | 32725 ft | 528 kts | 96° |
| 2026-04-29 11:53 | 22.71225 | 52.68551 | 32726 ft | 528 kts | 96° |
| 2026-04-29 11:53 | 22.70524 | 52.76459 | 32742 ft | 527 kts | 96° |
| 2026-04-29 11:54 | 22.69820 | 52.84350 | 32746 ft | 527 kts | 96° |
| 2026-04-29 11:54 | 22.69114 | 52.92226 | 32739 ft | 527 kts | 96° |
| 2026-04-29 11:55 | 22.68402 | 53.00117 | 32739 ft | 527 kts | 96° |
| 2026-04-29 11:55 | 22.67688 | 53.07999 | 32741 ft | 526 kts | 96° |
| 2026-04-29 11:56 | 22.66970 | 53.15870 | 32729 ft | 528 kts | 96° |
| 2026-04-29 11:56 | 22.66249 | 53.23723 | 32729 ft | 528 kts | 96° |
| 2026-04-29 11:57 | 22.65519 | 53.31640 | 32736 ft | 528 kts | 96° |
| 2026-04-29 11:57 | 22.64792 | 53.39493 | 32747 ft | 528 kts | 96° |
| 2026-04-29 11:58 | 22.64055 | 53.47389 | 32746 ft | 527 kts | 96° |
| 2026-04-29 11:58 | 22.63321 | 53.55227 | 32743 ft | 526 kts | 96° |
| 2026-04-29 11:59 | 22.62579 | 53.63106 | 32744 ft | 526 kts | 96° |
| 2026-04-29 11:59 | 22.61835 | 53.70945 | 32744 ft | 526 kts | 96° |
| 2026-04-29 12:00 | 22.61090 | 53.78770 | 32744 ft | 525 kts | 96° |
| 2026-04-29 12:00 | 22.60340 | 53.86610 | 32750 ft | 526 kts | 96° |
| 2026-04-29 12:01 | 22.59584 | 53.94475 | 32752 ft | 526 kts | 96° |
| 2026-04-29 12:01 | 22.58822 | 54.02347 | 32756 ft | 526 kts | 96° |
| 2026-04-29 12:02 | 22.58060 | 54.10188 | 32749 ft | 526 kts | 96° |
| 2026-04-29 12:02 | 22.57291 | 54.18071 | 32741 ft | 527 kts | 96° |
| 2026-04-29 12:03 | 22.56523 | 54.25896 | 32736 ft | 526 kts | 96° |
| 2026-04-29 12:03 | 22.55749 | 54.33739 | 32736 ft | 527 kts | 97° |
| 2026-04-29 12:04 | 22.54971 | 54.41584 | 32738 ft | 526 kts | 96° |
| 2026-04-29 12:04 | 22.54188 | 54.49440 | 32742 ft | 526 kts | 96° |
| 2026-04-29 12:05 | 22.53400 | 54.57312 | 32740 ft | 527 kts | 96° |
| 2026-04-29 12:05 | 22.52612 | 54.65131 | 32738 ft | 526 kts | 97° |
| 2026-04-29 12:06 | 22.51819 | 54.72984 | 32735 ft | 526 kts | 97° |
| 2026-04-29 12:06 | 22.51022 | 54.80825 | 32728 ft | 526 kts | 97° |
| 2026-04-29 12:07 | 22.50223 | 54.88650 | 32733 ft | 526 kts | 97° |
| 2026-04-29 12:07 | 22.49416 | 54.96528 | 32737 ft | 526 kts | 97° |
| 2026-04-29 12:08 | 22.48612 | 55.04349 | 32732 ft | 526 kts | 97° |
| 2026-04-29 12:08 | 22.47800 | 55.12181 | 32720 ft | 526 kts | 97° |
| 2026-04-29 12:09 | 22.46986 | 55.20023 | 32714 ft | 526 kts | 97° |
| 2026-04-29 12:09 | 22.46270 | 55.27842 | 32706 ft | 526 kts | 92° |
| 2026-04-29 12:10 | 22.46458 | 55.35721 | 32706 ft | 525 kts | 84° |
| 2026-04-29 12:10 | 22.47756 | 55.43464 | 32708 ft | 525 kts | 74° |
| 2026-04-29 12:11 | 22.50111 | 55.50915 | 32711 ft | 523 kts | 67° |
| 2026-04-29 12:11 | 22.52874 | 55.58196 | 32713 ft | 524 kts | 66° |
| 2026-04-29 12:12 | 22.55630 | 55.65456 | 32712 ft | 524 kts | 67° |
| 2026-04-29 12:12 | 22.58367 | 55.72733 | 32720 ft | 524 kts | 67° |
| 2026-04-29 12:13 | 22.61097 | 55.80036 | 32722 ft | 524 kts | 67° |
| 2026-04-29 12:13 | 22.63825 | 55.87347 | 32724 ft | 525 kts | 67° |
| 2026-04-29 12:14 | 22.66542 | 55.94642 | 32724 ft | 525 kts | 67° |
| 2026-04-29 12:14 | 22.69264 | 56.01961 | 32734 ft | 525 kts | 67° |
| 2026-04-29 12:15 | 22.71984 | 56.09288 | 32733 ft | 524 kts | 67° |
| 2026-04-29 12:15 | 22.74697 | 56.16605 | 32741 ft | 525 kts | 67° |
| 2026-04-29 12:16 | 22.77403 | 56.23918 | 32745 ft | 524 kts | 67° |
| 2026-04-29 12:16 | 22.80100 | 56.31221 | 33077 ft | 525 kts | 67° |
| 2026-04-29 12:17 | 22.81416 | 56.34911 | 33430 ft | 523 kts | 69° |
| 2026-04-29 12:17 | 22.82560 | 56.38647 | 33758 ft | 522 kts | 72° |
| 2026-04-29 12:17 | 22.83509 | 56.42395 | 34074 ft | 521 kts | 76° |
| 2026-04-29 12:17 | 22.84292 | 56.46208 | 34384 ft | 519 kts | 77° |
| 2026-04-29 12:18 | 22.85024 | 56.50056 | 34696 ft | 518 kts | 78° |
| 2026-04-29 12:18 | 22.85730 | 56.53828 | 34801 ft | 518 kts | 78° |
| 2026-04-29 12:18 | 22.87157 | 56.61438 | 34814 ft | 517 kts | 78° |
| 2026-04-29 12:19 | 22.88600 | 56.69087 | 34834 ft | 517 kts | 78° |
| 2026-04-29 12:19 | 22.90033 | 56.76685 | 34843 ft | 516 kts | 78° |
| 2026-04-29 12:20 | 22.91469 | 56.84311 | 34864 ft | 516 kts | 78° |
| 2026-04-29 12:20 | 22.92899 | 56.91921 | 34894 ft | 517 kts | 78° |
| 2026-04-29 12:21 | 22.94318 | 56.99493 | 34905 ft | 517 kts | 78° |
| 2026-04-29 12:21 | 22.95750 | 57.07156 | 34918 ft | 517 kts | 78° |
| 2026-04-29 12:22 | 22.97167 | 57.14755 | 34933 ft | 517 kts | 78° |
| 2026-04-29 12:22 | 22.98587 | 57.22398 | 34951 ft | 517 kts | 78° |
| 2026-04-29 12:23 | 22.99828 | 57.30019 | 34960 ft | 516 kts | 82° |
| 2026-04-29 12:23 | 23.00379 | 57.37801 | 34954 ft | 517 kts | 88° |
| 2026-04-29 12:24 | 23.00613 | 57.45544 | 34934 ft | 516 kts | 88° |
| 2026-04-29 12:24 | 23.00840 | 57.53342 | 34919 ft | 516 kts | 88° |
| 2026-04-29 12:25 | 23.01073 | 57.61074 | 34922 ft | 517 kts | 88° |
| 2026-04-29 12:26 | 23.01428 | 57.72740 | 34939 ft | 518 kts | 88° |
| 2026-04-29 12:26 | 23.01658 | 57.80529 | 34942 ft | 518 kts | 88° |
| 2026-04-29 12:27 | 23.01845 | 57.88343 | 34938 ft | 518 kts | 89° |
| 2026-04-29 12:27 | 23.01836 | 57.96121 | 34944 ft | 518 kts | 90° |
| 2026-04-29 12:28 | 23.01811 | 58.03916 | 34938 ft | 519 kts | 90° |
| 2026-04-29 12:28 | 23.01800 | 58.11754 | 34936 ft | 518 kts | 90° |
| 2026-04-29 12:29 | 23.01794 | 58.19562 | 34936 ft | 518 kts | 89° |
| 2026-04-29 12:29 | 23.01786 | 58.27339 | 34931 ft | 517 kts | 89° |
| 2026-04-29 12:30 | 23.01774 | 58.35108 | 34933 ft | 518 kts | 89° |
| 2026-04-29 12:30 | 23.01937 | 58.42930 | 34934 ft | 518 kts | 87° |
| 2026-04-29 12:31 | 23.02204 | 58.50699 | 34946 ft | 519 kts | 87° |
| 2026-04-29 12:31 | 23.02473 | 58.58516 | 34940 ft | 519 kts | 87° |
| 2026-04-29 12:32 | 23.02733 | 58.66324 | 34913 ft | 520 kts | 87° |
| 2026-04-29 12:32 | 23.02990 | 58.74155 | 34891 ft | 519 kts | 87° |
| 2026-04-29 12:33 | 23.03240 | 58.81934 | 34896 ft | 519 kts | 87° |
| 2026-04-29 12:33 | 23.03487 | 58.89711 | 34926 ft | 519 kts | 87° |
| 2026-04-29 12:34 | 23.03731 | 58.97564 | 34970 ft | 519 kts | 87° |
| 2026-04-29 12:34 | 23.03965 | 59.05365 | 34982 ft | 518 kts | 87° |
| 2026-04-29 12:35 | 23.04192 | 59.13121 | 34926 ft | 519 kts | 87° |
| 2026-04-29 12:35 | 23.04420 | 59.20988 | 34847 ft | 520 kts | 87° |
| 2026-04-29 12:36 | 23.04643 | 59.28794 | 34779 ft | 520 kts | 87° |
| 2026-04-29 12:36 | 23.04864 | 59.36635 | 34756 ft | 521 kts | 87° |
| 2026-04-29 12:37 | 23.05016 | 59.44473 | 34753 ft | 521 kts | 88° |
| 2026-04-29 12:37 | 23.05126 | 59.52297 | 34743 ft | 521 kts | 88° |
| 2026-04-29 12:38 | 23.05237 | 59.60117 | 34741 ft | 521 kts | 88° |
| 2026-04-29 12:38 | 23.05352 | 59.67948 | 34738 ft | 519 kts | 88° |
| 2026-04-29 12:39 | 23.05464 | 59.75803 | 34736 ft | 519 kts | 88° |
| 2026-04-29 12:39 | 23.05572 | 59.83594 | 34733 ft | 520 kts | 88° |
| 2026-04-29 12:40 | 23.05677 | 59.91441 | 34719 ft | 520 kts | 88° |
| 2026-04-29 12:40 | 23.05774 | 59.99245 | 34713 ft | 521 kts | 88° |
| 2026-04-29 12:41 | 23.05866 | 60.07093 | 34710 ft | 521 kts | 88° |
| 2026-04-29 12:41 | 23.05956 | 60.14932 | 34705 ft | 521 kts | 88° |
| 2026-04-29 12:42 | 23.06044 | 60.22769 | 34703 ft | 521 kts | 88° |
| 2026-04-29 12:42 | 23.06128 | 60.30623 | 34706 ft | 521 kts | 88° |
| 2026-04-29 12:43 | 23.06210 | 60.38465 | 34706 ft | 520 kts | 88° |
| 2026-04-29 12:43 | 23.06285 | 60.46273 | 34707 ft | 520 kts | 88° |
| 2026-04-29 12:44 | 23.06358 | 60.54098 | 34705 ft | 520 kts | 88° |
| 2026-04-29 12:44 | 23.06426 | 60.61946 | 34704 ft | 520 kts | 88° |
| 2026-04-29 12:45 | 23.06490 | 60.69775 | 34712 ft | 520 kts | 88° |
| 2026-04-29 12:45 | 23.06551 | 60.77565 | 34721 ft | 521 kts | 89° |
| 2026-04-29 12:46 | 23.06608 | 60.85426 | 34723 ft | 521 kts | 88° |
| 2026-04-29 12:46 | 23.06662 | 60.93280 | 34722 ft | 521 kts | 89° |
| 2026-04-29 12:47 | 23.06711 | 61.01141 | 34723 ft | 521 kts | 88° |
| 2026-04-29 12:47 | 23.06757 | 61.08978 | 34723 ft | 521 kts | 88° |
| 2026-04-29 12:48 | 23.06801 | 61.16822 | 34722 ft | 521 kts | 88° |
| 2026-04-29 12:48 | 23.06842 | 61.24664 | 34723 ft | 522 kts | 88° |
| 2026-04-29 12:49 | 23.06877 | 61.32493 | 34722 ft | 521 kts | 88° |
| 2026-04-29 12:49 | 23.06909 | 61.40362 | 34725 ft | 520 kts | 88° |
| 2026-04-29 12:50 | 23.06936 | 61.48193 | 34719 ft | 521 kts | 88° |
| 2026-04-29 12:50 | 23.06957 | 61.56002 | 34715 ft | 522 kts | 88° |
| 2026-04-29 12:51 | 23.06975 | 61.63890 | 34709 ft | 522 kts | 88° |
| 2026-04-29 12:51 | 23.06989 | 61.71728 | 34705 ft | 522 kts | 88° |
| 2026-04-29 12:52 | 23.06996 | 61.79569 | 34704 ft | 522 kts | 88° |
| 2026-04-29 12:52 | 23.06998 | 61.87477 | 34705 ft | 522 kts | 88° |
| 2026-04-29 12:53 | 23.06999 | 61.95315 | 34704 ft | 522 kts | 88° |
| 2026-04-29 12:53 | 23.06997 | 62.03155 | 34708 ft | 521 kts | 88° |
| 2026-04-29 12:54 | 23.06989 | 62.11029 | 34706 ft | 522 kts | 88° |
| 2026-04-29 12:54 | 23.06977 | 62.18888 | 34708 ft | 522 kts | 88° |
| 2026-04-29 12:55 | 23.06962 | 62.26744 | 34711 ft | 522 kts | 88° |
| 2026-04-29 12:55 | 23.06944 | 62.34572 | 34706 ft | 521 kts | 88° |
| 2026-04-29 12:56 | 23.06923 | 62.42431 | 34708 ft | 522 kts | 88° |
| 2026-04-29 12:56 | 23.06897 | 62.50268 | 34709 ft | 522 kts | 88° |
| 2026-04-29 12:57 | 23.06866 | 62.58125 | 34710 ft | 522 kts | 88° |
| 2026-04-29 12:57 | 23.06832 | 62.66016 | 34709 ft | 522 kts | 89° |
| 2026-04-29 12:58 | 23.06795 | 62.73874 | 34713 ft | 522 kts | 89° |
| 2026-04-29 12:58 | 23.06750 | 62.81689 | 34711 ft | 521 kts | 88° |
| 2026-04-29 12:59 | 23.06704 | 62.89537 | 34708 ft | 521 kts | 88° |
| 2026-04-29 12:59 | 23.06655 | 62.97397 | 34709 ft | 521 kts | 89° |
| 2026-04-29 13:00 | 23.06600 | 63.05245 | 34703 ft | 522 kts | 88° |
| 2026-04-29 13:00 | 23.06543 | 63.13108 | 34704 ft | 521 kts | 88° |
| 2026-04-29 13:01 | 23.06482 | 63.20958 | 34705 ft | 522 kts | 88° |
| 2026-04-29 13:01 | 23.06417 | 63.28789 | 34700 ft | 522 kts | 88° |
| 2026-04-29 13:02 | 23.06348 | 63.36681 | 34701 ft | 522 kts | 88° |
| 2026-04-29 13:02 | 23.06274 | 63.44535 | 34702 ft | 522 kts | 88° |
| 2026-04-29 13:03 | 23.06196 | 63.52412 | 34701 ft | 523 kts | 88° |
| 2026-04-29 13:03 | 23.06118 | 63.60290 | 34699 ft | 523 kts | 88° |
| 2026-04-29 13:04 | 23.06035 | 63.68175 | 34702 ft | 523 kts | 89° |
| 2026-04-29 13:04 | 23.05948 | 63.76026 | 34700 ft | 522 kts | 88° |
| 2026-04-29 13:05 | 23.05852 | 63.83893 | 34706 ft | 523 kts | 89° |
| 2026-04-29 13:05 | 23.05325 | 63.91760 | 34699 ft | 524 kts | 94° |
| 2026-04-29 13:06 | 23.04525 | 63.99540 | 34702 ft | 511 kts | 94° |
| 2026-04-29 13:06 | 23.03735 | 64.07140 | 34707 ft | 509 kts | 94° |
| 2026-04-29 13:07 | 23.02948 | 64.14790 | 34707 ft | 510 kts | 94° |
| 2026-04-29 13:07 | 23.02167 | 64.22377 | 34706 ft | 509 kts | 94° |
| 2026-04-29 13:08 | 23.01379 | 64.30000 | 34713 ft | 509 kts | 94° |
| 2026-04-29 13:08 | 23.00589 | 64.37622 | 34723 ft | 509 kts | 94° |
| 2026-04-29 13:09 | 22.99797 | 64.45209 | 34729 ft | 509 kts | 94° |
| 2026-04-29 13:09 | 22.98998 | 64.52834 | 34729 ft | 508 kts | 94° |
| 2026-04-29 13:10 | 22.98199 | 64.60442 | 34729 ft | 509 kts | 94° |
| 2026-04-29 13:10 | 22.97400 | 64.68010 | 34724 ft | 508 kts | 94° |
| 2026-04-29 13:11 | 22.96589 | 64.75643 | 34721 ft | 509 kts | 94° |
| 2026-04-29 13:11 | 22.95884 | 64.83250 | 34709 ft | 508 kts | 90° |
| 2026-04-29 13:12 | 22.95779 | 64.90835 | 34708 ft | 507 kts | 86° |
| 2026-04-29 13:12 | 22.95840 | 64.98460 | 34707 ft | 506 kts | 86° |
| 2026-04-29 13:13 | 22.95895 | 65.06104 | 34708 ft | 505 kts | 86° |
| 2026-04-29 13:13 | 22.95938 | 65.13719 | 34706 ft | 506 kts | 86° |
| 2026-04-29 13:14 | 22.95972 | 65.21295 | 34710 ft | 506 kts | 86° |
| 2026-04-29 13:14 | 22.96003 | 65.28928 | 34707 ft | 506 kts | 86° |
| 2026-04-29 13:15 | 22.96031 | 65.36533 | 34710 ft | 506 kts | 86° |
| 2026-04-29 13:15 | 22.96054 | 65.44147 | 34708 ft | 506 kts | 86° |
| 2026-04-29 13:16 | 22.96075 | 65.51760 | 34709 ft | 506 kts | 86° |
| 2026-04-29 13:16 | 22.96091 | 65.59371 | 34709 ft | 507 kts | 86° |
| 2026-04-29 13:17 | 22.96104 | 65.66993 | 34706 ft | 506 kts | 87° |
| 2026-04-29 13:17 | 22.96114 | 65.74571 | 34709 ft | 506 kts | 87° |
| 2026-04-29 13:18 | 22.96118 | 65.82203 | 34705 ft | 501 kts | 86° |
| 2026-04-29 13:18 | 22.96118 | 65.89638 | 34710 ft | 494 kts | 86° |
| 2026-04-29 13:19 | 22.96120 | 65.97086 | 34717 ft | 495 kts | 86° |
| 2026-04-29 13:19 | 22.96117 | 66.04553 | 34723 ft | 496 kts | 86° |
| 2026-04-29 13:20 | 22.96107 | 66.12019 | 34724 ft | 496 kts | 86° |
| 2026-04-29 13:20 | 22.96095 | 66.19484 | 34722 ft | 496 kts | 86° |
| 2026-04-29 13:21 | 22.96079 | 66.26939 | 34716 ft | 496 kts | 86° |
| 2026-04-29 13:21 | 22.96061 | 66.34403 | 34707 ft | 496 kts | 86° |
| 2026-04-29 13:22 | 22.96039 | 66.41817 | 34708 ft | 495 kts | 86° |
| 2026-04-29 13:22 | 22.96014 | 66.49262 | 34710 ft | 495 kts | 86° |
| 2026-04-29 13:23 | 22.95984 | 66.56712 | 34707 ft | 495 kts | 86° |
| 2026-04-29 13:23 | 22.95951 | 66.64168 | 34708 ft | 495 kts | 86° |
| 2026-04-29 13:24 | 22.95915 | 66.71651 | 34706 ft | 496 kts | 86° |
| 2026-04-29 13:24 | 22.95877 | 66.79112 | 34704 ft | 497 kts | 86° |
| 2026-04-29 13:25 | 22.95833 | 66.86573 | 34704 ft | 497 kts | 86° |
| 2026-04-29 13:25 | 22.95765 | 66.97774 | 34708 ft | 496 kts | 86° |
| 2026-04-29 13:26 | 22.95778 | 67.05243 | 34706 ft | 496 kts | 86° |
| 2026-04-29 13:26 | 22.95802 | 67.12704 | 34706 ft | 495 kts | 86° |
| 2026-04-29 13:27 | 22.95820 | 67.20142 | 34709 ft | 496 kts | 86° |
| 2026-04-29 13:27 | 22.95828 | 67.27615 | 34709 ft | 495 kts | 86° |
| 2026-04-29 13:28 | 22.95830 | 67.35038 | 34707 ft | 496 kts | 86° |
| 2026-04-29 13:28 | 22.95832 | 67.42534 | 34709 ft | 496 kts | 86° |
| 2026-04-29 13:29 | 22.95828 | 67.49986 | 34709 ft | 496 kts | 86° |
| 2026-04-29 13:29 | 22.95822 | 67.57440 | 34710 ft | 496 kts | 86° |
| 2026-04-29 13:30 | 22.95812 | 67.64889 | 34708 ft | 495 kts | 86° |
| 2026-04-29 13:30 | 22.95802 | 67.72349 | 34709 ft | 495 kts | 86° |
| 2026-04-29 13:31 | 22.95788 | 67.79792 | 34708 ft | 495 kts | 86° |
| 2026-04-29 13:31 | 22.95766 | 67.87219 | 34709 ft | 495 kts | 86° |
| 2026-04-29 13:32 | 22.95766 | 67.94698 | 34708 ft | 495 kts | 86° |
| 2026-04-29 13:32 | 22.95776 | 68.02132 | 34710 ft | 494 kts | 86° |
| 2026-04-29 13:33 | 22.95780 | 68.09585 | 34707 ft | 495 kts | 86° |
| 2026-04-29 13:33 | 22.95781 | 68.17023 | 34708 ft | 495 kts | 86° |
| 2026-04-29 13:34 | 22.95779 | 68.24450 | 34706 ft | 495 kts | 86° |
| 2026-04-29 13:34 | 22.95774 | 68.31890 | 34709 ft | 496 kts | 86° |
| 2026-04-29 13:35 | 22.95679 | 68.39340 | 34708 ft | 497 kts | 89° |
| 2026-04-29 13:35 | 22.95261 | 68.46826 | 34708 ft | 497 kts | 90° |
| 2026-04-29 13:36 | 22.94818 | 68.54297 | 34708 ft | 496 kts | 89° |
| 2026-04-29 13:36 | 22.94381 | 68.61747 | 34708 ft | 496 kts | 89° |
| 2026-04-29 13:37 | 22.93945 | 68.69187 | 34708 ft | 496 kts | 90° |
| 2026-04-29 13:37 | 22.93504 | 68.76681 | 34710 ft | 496 kts | 90° |
| 2026-04-29 13:38 | 22.93062 | 68.84129 | 34709 ft | 497 kts | 90° |
| 2026-04-29 13:38 | 22.92617 | 68.91554 | 34712 ft | 497 kts | 90° |
| 2026-04-29 13:39 | 22.92168 | 68.99017 | 34721 ft | 497 kts | 89° |
| 2026-04-29 13:39 | 22.91716 | 69.06506 | 34728 ft | 497 kts | 89° |
| 2026-04-29 13:40 | 22.91259 | 69.13988 | 34731 ft | 497 kts | 89° |
| 2026-04-29 13:40 | 22.90799 | 69.21423 | 34732 ft | 498 kts | 89° |
| 2026-04-29 13:41 | 22.90334 | 69.28919 | 34729 ft | 498 kts | 89° |
| 2026-04-29 13:41 | 22.89868 | 69.36372 | 34725 ft | 498 kts | 89° |
| 2026-04-29 13:42 | 22.89397 | 69.43858 | 34721 ft | 498 kts | 89° |
| 2026-04-29 13:42 | 22.88925 | 69.51306 | 34717 ft | 498 kts | 89° |
| 2026-04-29 13:43 | 22.88447 | 69.58772 | 34713 ft | 498 kts | 89° |
| 2026-04-29 13:43 | 22.87968 | 69.66216 | 34704 ft | 498 kts | 89° |
| 2026-04-29 13:44 | 22.87495 | 69.73737 | 34712 ft | 499 kts | 89° |
| 2026-04-29 13:44 | 22.87062 | 69.81231 | 34716 ft | 499 kts | 89° |
| 2026-04-29 13:45 | 22.86630 | 69.88696 | 34715 ft | 500 kts | 89° |
| 2026-04-29 13:45 | 22.86190 | 69.96215 | 34714 ft | 499 kts | 89° |
| 2026-04-29 13:46 | 22.85748 | 70.03678 | 34714 ft | 500 kts | 89° |
| 2026-04-29 13:46 | 22.85303 | 70.11179 | 34715 ft | 500 kts | 89° |
| 2026-04-29 13:47 | 22.84849 | 70.18710 | 34715 ft | 499 kts | 89° |
| 2026-04-29 13:47 | 22.84396 | 70.26206 | 34714 ft | 499 kts | 89° |
| 2026-04-29 13:48 | 22.83940 | 70.33691 | 34713 ft | 499 kts | 89° |
| 2026-04-29 13:48 | 22.83480 | 70.41157 | 34712 ft | 499 kts | 89° |
| 2026-04-29 13:49 | 22.83016 | 70.48652 | 34710 ft | 499 kts | 89° |
| 2026-04-29 13:49 | 22.82551 | 70.56097 | 34707 ft | 499 kts | 89° |
| 2026-04-29 13:50 | 22.82081 | 70.63596 | 34707 ft | 499 kts | 89° |
| 2026-04-29 13:50 | 22.81606 | 70.71104 | 34703 ft | 500 kts | 89° |
| 2026-04-29 13:51 | 22.81183 | 70.78608 | 34703 ft | 498 kts | 86° |
| 2026-04-29 13:51 | 22.81369 | 70.86021 | 34702 ft | 493 kts | 79° |
| 2026-04-29 13:52 | 22.82278 | 70.93332 | 34701 ft | 490 kts | 75° |
| 2026-04-29 13:52 | 22.83399 | 71.00636 | 34703 ft | 490 kts | 75° |
| 2026-04-29 13:53 | 22.84505 | 71.07903 | 34705 ft | 490 kts | 75° |
| 2026-04-29 13:53 | 22.85597 | 71.15188 | 34703 ft | 490 kts | 75° |
| 2026-04-29 13:54 | 22.86675 | 71.22448 | 34702 ft | 489 kts | 75° |
| 2026-04-29 13:54 | 22.87751 | 71.29696 | 34705 ft | 490 kts | 75° |
| 2026-04-29 13:55 | 22.88830 | 71.37002 | 34706 ft | 490 kts | 75° |
| 2026-04-29 13:55 | 22.89905 | 71.44305 | 34707 ft | 490 kts | 75° |
| 2026-04-29 13:56 | 22.90971 | 71.51582 | 34704 ft | 489 kts | 75° |
| 2026-04-29 13:56 | 22.92036 | 71.58854 | 34697 ft | 491 kts | 75° |
| 2026-04-29 13:57 | 22.93091 | 71.66105 | 34690 ft | 491 kts | 75° |
| 2026-04-29 13:57 | 22.93981 | 71.72231 | 34685 ft | 491 kts | 75° |
| 2026-04-29 13:58 | 22.95212 | 71.80714 | 34671 ft | 491 kts | 75° |
| 2026-04-29 13:58 | 22.96267 | 71.88022 | 34660 ft | 492 kts | 75° |
| 2026-04-29 13:59 | 22.97319 | 71.95349 | 34658 ft | 491 kts | 75° |
| 2026-04-29 13:59 | 22.98360 | 72.02625 | 34655 ft | 491 kts | 75° |
| 2026-04-29 14:00 | 22.99408 | 72.09949 | 34654 ft | 491 kts | 75° |
| 2026-04-29 14:00 | 23.00446 | 72.17245 | 34661 ft | 491 kts | 75° |
| 2026-04-29 14:01 | 23.01483 | 72.24586 | 34665 ft | 492 kts | 75° |
| 2026-04-29 14:01 | 23.02515 | 72.31892 | 34672 ft | 492 kts | 75° |
| 2026-04-29 14:02 | 23.03552 | 72.39202 | 34672 ft | 493 kts | 75° |
| 2026-04-29 14:02 | 23.04585 | 72.46559 | 34671 ft | 493 kts | 75° |
| 2026-04-29 14:03 | 23.05604 | 72.53867 | 34676 ft | 493 kts | 75° |
| 2026-04-29 14:03 | 23.06613 | 72.61192 | 34679 ft | 493 kts | 76° |
| 2026-04-29 14:04 | 23.07216 | 72.68652 | 34673 ft | 496 kts | 81° |
| 2026-04-29 14:04 | 23.07617 | 72.76099 | 34674 ft | 496 kts | 81° |
| 2026-04-29 14:05 | 23.08015 | 72.83541 | 34679 ft | 496 kts | 81° |
| 2026-04-29 14:05 | 23.08422 | 72.91018 | 34681 ft | 495 kts | 81° |
| 2026-04-29 14:06 | 23.08828 | 72.98456 | 34677 ft | 496 kts | 81° |
| 2026-04-29 14:06 | 23.09233 | 73.05888 | 34683 ft | 496 kts | 81° |
| 2026-04-29 14:07 | 23.09631 | 73.13332 | 34679 ft | 495 kts | 81° |
| 2026-04-29 14:07 | 23.10031 | 73.20802 | 34686 ft | 496 kts | 80° |
| 2026-04-29 14:08 | 23.10429 | 73.28278 | 34686 ft | 495 kts | 81° |
| 2026-04-29 14:08 | 23.10816 | 73.35720 | 34686 ft | 495 kts | 81° |
| 2026-04-29 14:09 | 23.11204 | 73.43183 | 34692 ft | 495 kts | 81° |
| 2026-04-29 14:09 | 23.11583 | 73.50568 | 34695 ft | 494 kts | 80° |
| 2026-04-29 14:10 | 23.11964 | 73.58014 | 34695 ft | 496 kts | 80° |
| 2026-04-29 14:10 | 23.12344 | 73.65515 | 34699 ft | 495 kts | 81° |
| 2026-04-29 14:11 | 23.12717 | 73.72955 | 34704 ft | 496 kts | 81° |
| 2026-04-29 14:11 | 23.13086 | 73.80441 | 34707 ft | 496 kts | 81° |
| 2026-04-29 14:12 | 23.13455 | 73.87909 | 34713 ft | 496 kts | 81° |
| 2026-04-29 14:12 | 23.13816 | 73.95328 | 34712 ft | 495 kts | 81° |
| 2026-04-29 14:13 | 23.14177 | 74.02792 | 34717 ft | 495 kts | 81° |
| 2026-04-29 14:13 | 23.14534 | 74.10239 | 34725 ft | 495 kts | 81° |
| 2026-04-29 14:14 | 23.14888 | 74.17727 | 34722 ft | 495 kts | 81° |
| 2026-04-29 14:14 | 23.15239 | 74.25166 | 34726 ft | 496 kts | 81° |
| 2026-04-29 14:15 | 23.15585 | 74.32616 | 34732 ft | 497 kts | 81° |
| 2026-04-29 14:15 | 23.15820 | 74.40089 | 34743 ft | 498 kts | 82° |
| 2026-04-29 14:16 | 23.15950 | 74.47598 | 34756 ft | 497 kts | 83° |
| 2026-04-29 14:16 | 23.16087 | 74.55109 | 34768 ft | 497 kts | 82° |
| 2026-04-29 14:17 | 23.16233 | 74.62603 | 34773 ft | 497 kts | 82° |
| 2026-04-29 14:17 | 23.16377 | 74.70079 | 34774 ft | 497 kts | 83° |
| 2026-04-29 14:18 | 23.16523 | 74.77553 | 34776 ft | 497 kts | 83° |
| 2026-04-29 14:18 | 23.16662 | 74.85062 | 34777 ft | 496 kts | 83° |
| 2026-04-29 14:19 | 23.16798 | 74.92561 | 34781 ft | 497 kts | 83° |
| 2026-04-29 14:19 | 23.16931 | 75.00058 | 34785 ft | 497 kts | 83° |
| 2026-04-29 14:20 | 23.17061 | 75.07516 | 34796 ft | 496 kts | 83° |
| 2026-04-29 14:20 | 23.17188 | 75.15018 | 34801 ft | 497 kts | 83° |
| 2026-04-29 14:21 | 23.17310 | 75.22511 | 34804 ft | 496 kts | 83° |
| 2026-04-29 14:21 | 23.17427 | 75.29942 | 34806 ft | 496 kts | 83° |
| 2026-04-29 14:22 | 23.17542 | 75.37428 | 34804 ft | 496 kts | 83° |
| 2026-04-29 14:22 | 23.17655 | 75.44900 | 34800 ft | 496 kts | 83° |
| 2026-04-29 14:23 | 23.17760 | 75.52277 | 34790 ft | 496 kts | 83° |
| 2026-04-29 14:23 | 23.17866 | 75.59750 | 34790 ft | 496 kts | 83° |
| 2026-04-29 14:24 | 23.17966 | 75.67241 | 34794 ft | 496 kts | 83° |
| 2026-04-29 14:24 | 23.18066 | 75.74707 | 34805 ft | 496 kts | 83° |
| 2026-04-29 14:25 | 23.18162 | 75.82198 | 34805 ft | 495 kts | 83° |
| 2026-04-29 14:25 | 23.18254 | 75.89630 | 34806 ft | 495 kts | 83° |
| 2026-04-29 14:26 | 23.18342 | 75.97112 | 34802 ft | 496 kts | 83° |
| 2026-04-29 14:26 | 23.18712 | 76.04550 | 34803 ft | 492 kts | 79° |
| 2026-04-29 14:27 | 23.19292 | 76.11925 | 34797 ft | 493 kts | 79° |
| 2026-04-29 14:28 | 23.20166 | 76.23059 | 34792 ft | 493 kts | 79° |
| 2026-04-29 14:28 | 23.20734 | 76.30424 | 34797 ft | 492 kts | 79° |
| 2026-04-29 14:29 | 23.21298 | 76.37802 | 34791 ft | 492 kts | 79° |
| 2026-04-29 14:29 | 23.21860 | 76.45214 | 34792 ft | 492 kts | 79° |
| 2026-04-29 14:30 | 23.22420 | 76.52613 | 34791 ft | 492 kts | 79° |
| 2026-04-29 14:30 | 23.22973 | 76.59988 | 34786 ft | 492 kts | 79° |
| 2026-04-29 14:31 | 23.23522 | 76.67365 | 34782 ft | 491 kts | 79° |
| 2026-04-29 14:31 | 23.24072 | 76.74789 | 34780 ft | 492 kts | 79° |
| 2026-04-29 14:32 | 23.24614 | 76.82171 | 34778 ft | 491 kts | 79° |
| 2026-04-29 14:32 | 23.25155 | 76.89558 | 34775 ft | 491 kts | 79° |
| 2026-04-29 14:33 | 23.25692 | 76.96932 | 34783 ft | 491 kts | 79° |
| 2026-04-29 14:33 | 23.26226 | 77.04319 | 34788 ft | 491 kts | 79° |
| 2026-04-29 14:34 | 23.26755 | 77.11705 | 34783 ft | 491 kts | 79° |
| 2026-04-29 14:34 | 23.27284 | 77.19109 | 34776 ft | 491 kts | 79° |
| 2026-04-29 14:35 | 23.27807 | 77.26477 | 34766 ft | 491 kts | 79° |
| 2026-04-29 14:35 | 23.28213 | 77.33903 | 34760 ft | 494 kts | 83° |
| 2026-04-29 14:36 | 23.28020 | 77.41363 | 34757 ft | 494 kts | 87° |
| 2026-04-29 14:36 | 23.27696 | 77.48792 | 34757 ft | 494 kts | 87° |
| 2026-04-29 14:37 | 23.27378 | 77.56234 | 34762 ft | 494 kts | 86° |
| 2026-04-29 14:37 | 23.27063 | 77.63676 | 34765 ft | 495 kts | 86° |
| 2026-04-29 14:38 | 23.26744 | 77.71161 | 34766 ft | 494 kts | 87° |
| 2026-04-29 14:38 | 23.26588 | 77.74857 | 34496 ft | 493 kts | 87° |
| 2026-04-29 14:38 | 23.26427 | 77.78606 | 34671 ft | 495 kts | 87° |
| 2026-04-29 14:39 | 23.26104 | 77.86068 | 34798 ft | 496 kts | 87° |
| 2026-04-29 14:39 | 23.25776 | 77.93536 | 34721 ft | 495 kts | 87° |
| 2026-04-29 14:40 | 23.25446 | 78.01007 | 34745 ft | 496 kts | 86° |
| 2026-04-29 14:40 | 23.25114 | 78.08437 | 34797 ft | 496 kts | 87° |
| 2026-04-29 14:41 | 23.24776 | 78.15913 | 34733 ft | 494 kts | 87° |
| 2026-04-29 14:41 | 23.24438 | 78.23344 | 34954 ft | 495 kts | 87° |
| 2026-04-29 14:41 | 23.24265 | 78.27076 | 34838 ft | 494 kts | 87° |
| 2026-04-29 14:42 | 23.24093 | 78.30780 | 34778 ft | 493 kts | 87° |
| 2026-04-29 14:42 | 23.23747 | 78.38222 | 34745 ft | 492 kts | 87° |
| 2026-04-29 14:43 | 23.23401 | 78.45629 | 34732 ft | 492 kts | 87° |
| 2026-04-29 14:43 | 23.23049 | 78.53027 | 34732 ft | 491 kts | 87° |
| 2026-04-29 14:44 | 23.22696 | 78.60402 | 34745 ft | 492 kts | 87° |
| 2026-04-29 14:44 | 23.22340 | 78.67815 | 34747 ft | 493 kts | 88° |
| 2026-04-29 14:45 | 23.22017 | 78.75258 | 34746 ft | 491 kts | 86° |
| 2026-04-29 14:45 | 23.21900 | 78.82620 | 34745 ft | 490 kts | 85° |
| 2026-04-29 14:46 | 23.21799 | 78.90040 | 34737 ft | 490 kts | 85° |
| 2026-04-29 14:46 | 23.21690 | 78.97412 | 34740 ft | 490 kts | 85° |
| 2026-04-29 14:47 | 23.21575 | 79.04799 | 34736 ft | 489 kts | 85° |
| 2026-04-29 14:47 | 23.21456 | 79.12144 | 34739 ft | 488 kts | 85° |
| 2026-04-29 14:48 | 23.21337 | 79.19531 | 34743 ft | 488 kts | 85° |
| 2026-04-29 14:48 | 23.21214 | 79.26867 | 34747 ft | 487 kts | 86° |
| 2026-04-29 14:49 | 23.21086 | 79.34241 | 34744 ft | 488 kts | 85° |
| 2026-04-29 14:49 | 23.20957 | 79.41564 | 34733 ft | 488 kts | 86° |
| 2026-04-29 14:50 | 23.20824 | 79.48952 | 34724 ft | 488 kts | 85° |
| 2026-04-29 14:50 | 23.20690 | 79.56278 | 34726 ft | 488 kts | 86° |
| 2026-04-29 14:51 | 23.20426 | 79.63658 | 34731 ft | 489 kts | 87° |
| 2026-04-29 14:51 | 23.20092 | 79.71015 | 34742 ft | 488 kts | 88° |
| 2026-04-29 14:52 | 23.19768 | 79.78374 | 34744 ft | 488 kts | 88° |
| 2026-04-29 14:52 | 23.19454 | 79.85681 | 34742 ft | 487 kts | 88° |
| 2026-04-29 14:53 | 23.19141 | 79.92998 | 34730 ft | 487 kts | 88° |
| 2026-04-29 14:53 | 23.18820 | 80.00368 | 34732 ft | 486 kts | 88° |
| 2026-04-29 14:54 | 23.18492 | 80.07686 | 34731 ft | 486 kts | 88° |
| 2026-04-29 14:54 | 23.18114 | 80.14999 | 34737 ft | 486 kts | 89° |
| 2026-04-29 14:55 | 23.17730 | 80.22286 | 34742 ft | 486 kts | 88° |
| 2026-04-29 14:55 | 23.17347 | 80.29611 | 34749 ft | 486 kts | 89° |
| 2026-04-29 14:56 | 23.16964 | 80.36923 | 34760 ft | 485 kts | 88° |
| 2026-04-29 14:56 | 23.16580 | 80.44186 | 34777 ft | 485 kts | 88° |
| 2026-04-29 14:57 | 23.16192 | 80.51470 | 34793 ft | 484 kts | 89° |
| 2026-04-29 14:57 | 23.15798 | 80.58770 | 34799 ft | 484 kts | 89° |
| 2026-04-29 14:58 | 23.15404 | 80.66050 | 34801 ft | 483 kts | 89° |
| 2026-04-29 14:58 | 23.15009 | 80.73299 | 34814 ft | 482 kts | 89° |
| 2026-04-29 14:59 | 23.14610 | 80.80544 | 34822 ft | 481 kts | 89° |
| 2026-04-29 14:59 | 23.14215 | 80.87779 | 34826 ft | 481 kts | 89° |
| 2026-04-29 15:00 | 23.13819 | 80.95036 | 34834 ft | 481 kts | 89° |
| 2026-04-29 15:00 | 23.13421 | 81.02271 | 34844 ft | 481 kts | 89° |
| 2026-04-29 15:01 | 23.13019 | 81.09513 | 34852 ft | 481 kts | 89° |
| 2026-04-29 15:01 | 23.12616 | 81.16749 | 34837 ft | 480 kts | 89° |
| 2026-04-29 15:02 | 23.12209 | 81.23960 | 34840 ft | 479 kts | 89° |
| 2026-04-29 15:02 | 23.11801 | 81.31152 | 34841 ft | 478 kts | 89° |
| 2026-04-29 15:03 | 23.11389 | 81.38328 | 34832 ft | 478 kts | 89° |
| 2026-04-29 15:03 | 23.10978 | 81.45508 | 34836 ft | 477 kts | 89° |
| 2026-04-29 15:04 | 23.10560 | 81.52662 | 34826 ft | 477 kts | 90° |
| 2026-04-29 15:04 | 23.10141 | 81.59837 | 34824 ft | 476 kts | 90° |
| 2026-04-29 15:05 | 23.09716 | 81.67015 | 34808 ft | 475 kts | 90° |
| 2026-04-29 15:05 | 23.09290 | 81.74168 | 34785 ft | 474 kts | 90° |
| 2026-04-29 15:06 | 23.08863 | 81.81268 | 34778 ft | 474 kts | 90° |
| 2026-04-29 15:06 | 23.08434 | 81.88369 | 34777 ft | 473 kts | 90° |
| 2026-04-29 15:07 | 23.08002 | 81.95506 | 34766 ft | 472 kts | 91° |
| 2026-04-29 15:07 | 23.07567 | 82.02589 | 34755 ft | 472 kts | 90° |
| 2026-04-29 15:08 | 23.07134 | 82.09664 | 34752 ft | 471 kts | 90° |
| 2026-04-29 15:08 | 23.06693 | 82.16745 | 34736 ft | 471 kts | 90° |
| 2026-04-29 15:09 | 23.06367 | 82.23812 | 34746 ft | 471 kts | 89° |
| 2026-04-29 15:09 | 23.06073 | 82.30899 | 34747 ft | 471 kts | 90° |
| 2026-04-29 15:10 | 23.05770 | 82.37992 | 34752 ft | 471 kts | 89° |
| 2026-04-29 15:10 | 23.05457 | 82.45088 | 34766 ft | 471 kts | 90° |
| 2026-04-29 15:11 | 23.05143 | 82.52166 | 34764 ft | 470 kts | 90° |
| 2026-04-29 15:11 | 23.04823 | 82.59245 | 34770 ft | 470 kts | 90° |
| 2026-04-29 15:12 | 23.04502 | 82.66322 | 34767 ft | 470 kts | 90° |
| 2026-04-29 15:12 | 23.04176 | 82.73425 | 34766 ft | 470 kts | 90° |
| 2026-04-29 15:13 | 23.03849 | 82.80466 | 34781 ft | 470 kts | 90° |
| 2026-04-29 15:13 | 23.03519 | 82.87530 | 34785 ft | 470 kts | 90° |
| 2026-04-29 15:14 | 23.03183 | 82.94601 | 34782 ft | 469 kts | 91° |
| 2026-04-29 15:14 | 23.02848 | 83.01640 | 34791 ft | 469 kts | 91° |
| 2026-04-29 15:15 | 23.02508 | 83.08682 | 34798 ft | 469 kts | 91° |
| 2026-04-29 15:15 | 23.02163 | 83.15738 | 34808 ft | 469 kts | 91° |
| 2026-04-29 15:16 | 23.01819 | 83.22746 | 34803 ft | 468 kts | 90° |
| 2026-04-29 15:16 | 23.01472 | 83.29812 | 34796 ft | 468 kts | 90° |
| 2026-04-29 15:17 | 23.01125 | 83.36806 | 34807 ft | 468 kts | 91° |
| 2026-04-29 15:17 | 23.00770 | 83.43848 | 34813 ft | 468 kts | 91° |
| 2026-04-29 15:18 | 23.00410 | 83.50906 | 34818 ft | 468 kts | 91° |
| 2026-04-29 15:18 | 23.00049 | 83.57945 | 34826 ft | 468 kts | 91° |
| 2026-04-29 15:19 | 22.99685 | 83.64981 | 34837 ft | 468 kts | 91° |
| 2026-04-29 15:19 | 22.99320 | 83.72016 | 34856 ft | 469 kts | 91° |
| 2026-04-29 15:20 | 22.98949 | 83.79074 | 34869 ft | 467 kts | 91° |
| 2026-04-29 15:20 | 22.98576 | 83.86098 | 34874 ft | 467 kts | 91° |
| 2026-04-29 15:21 | 22.98202 | 83.93098 | 34874 ft | 467 kts | 91° |
| 2026-04-29 15:21 | 22.97824 | 84.00108 | 34867 ft | 468 kts | 91° |
| 2026-04-29 15:22 | 22.97446 | 84.07133 | 34868 ft | 468 kts | 91° |
| 2026-04-29 15:22 | 22.97050 | 84.14168 | 34859 ft | 467 kts | 92° |
| 2026-04-29 15:23 | 22.96544 | 84.21197 | 34852 ft | 467 kts | 93° |
| 2026-04-29 15:23 | 22.96026 | 84.28184 | 34847 ft | 466 kts | 93° |
| 2026-04-29 15:24 | 22.95512 | 84.35150 | 34847 ft | 465 kts | 92° |
| 2026-04-29 15:24 | 22.95000 | 84.42138 | 34843 ft | 465 kts | 93° |
| 2026-04-29 15:25 | 22.94488 | 84.49115 | 34842 ft | 465 kts | 93° |
| 2026-04-29 15:25 | 22.93971 | 84.56095 | 34829 ft | 465 kts | 93° |
| 2026-04-29 15:26 | 22.93450 | 84.63083 | 34818 ft | 465 kts | 93° |
| 2026-04-29 15:26 | 22.92931 | 84.70046 | 34802 ft | 465 kts | 94° |
| 2026-04-29 15:27 | 22.92407 | 84.77004 | 34785 ft | 465 kts | 94° |
| 2026-04-29 15:27 | 22.91879 | 84.83957 | 34773 ft | 464 kts | 94° |
| 2026-04-29 15:28 | 22.91347 | 84.90941 | 34772 ft | 464 kts | 93° |
| 2026-04-29 15:28 | 22.90818 | 84.97875 | 34764 ft | 464 kts | 94° |
| 2026-04-29 15:29 | 22.90283 | 85.04850 | 34772 ft | 464 kts | 94° |
| 2026-04-29 15:30 | 22.89198 | 85.18810 | 34773 ft | 465 kts | 93° |
| 2026-04-29 15:30 | 22.88661 | 85.25745 | 34775 ft | 466 kts | 94° |
| 2026-04-29 15:31 | 22.88115 | 85.32755 | 34772 ft | 465 kts | 93° |
| 2026-04-29 15:31 | 22.87575 | 85.39717 | 34769 ft | 466 kts | 93° |
| 2026-04-29 15:32 | 22.87029 | 85.46725 | 34764 ft | 468 kts | 94° |
| 2026-04-29 15:32 | 22.86482 | 85.53752 | 34764 ft | 469 kts | 95° |
| 2026-04-29 15:33 | 22.85929 | 85.60737 | 34764 ft | 465 kts | 96° |
| 2026-04-29 15:33 | 22.85367 | 85.67718 | 34753 ft | 464 kts | 97° |
| 2026-04-29 15:34 | 22.84806 | 85.74667 | 34745 ft | 462 kts | 97° |
| 2026-04-29 15:34 | 22.84244 | 85.81572 | 34741 ft | 461 kts | 97° |
| 2026-04-29 15:35 | 22.83685 | 85.88477 | 34741 ft | 461 kts | 97° |
| 2026-04-29 15:35 | 22.83124 | 85.95341 | 34726 ft | 459 kts | 97° |
| 2026-04-29 15:36 | 22.82560 | 86.02224 | 34722 ft | 460 kts | 97° |
| 2026-04-29 15:36 | 22.81998 | 86.09086 | 34724 ft | 459 kts | 98° |
| 2026-04-29 15:37 | 22.81423 | 86.15996 | 34728 ft | 460 kts | 97° |
| 2026-04-29 15:37 | 22.80966 | 86.22901 | 34729 ft | 460 kts | 96° |
| 2026-04-29 15:38 | 22.80617 | 86.29777 | 34729 ft | 461 kts | 96° |
| 2026-04-29 15:38 | 22.80258 | 86.36692 | 34735 ft | 461 kts | 96° |
| 2026-04-29 15:39 | 22.79886 | 86.43608 | 34737 ft | 461 kts | 96° |
| 2026-04-29 15:39 | 22.79507 | 86.50558 | 34743 ft | 461 kts | 96° |
| 2026-04-29 15:40 | 22.79124 | 86.57481 | 34746 ft | 461 kts | 96° |
| 2026-04-29 15:40 | 22.78742 | 86.64346 | 34745 ft | 461 kts | 96° |
| 2026-04-29 15:41 | 22.78351 | 86.71298 | 34741 ft | 461 kts | 96° |
| 2026-04-29 15:41 | 22.77958 | 86.78245 | 34740 ft | 463 kts | 96° |
| 2026-04-29 15:42 | 22.77561 | 86.85205 | 34740 ft | 464 kts | 96° |
| 2026-04-29 15:42 | 22.77162 | 86.92127 | 34747 ft | 465 kts | 96° |
| 2026-04-29 15:43 | 22.76761 | 86.99107 | 34740 ft | 465 kts | 96° |
| 2026-04-29 15:43 | 22.76353 | 87.06117 | 34740 ft | 464 kts | 96° |
| 2026-04-29 15:44 | 22.75945 | 87.13068 | 34741 ft | 463 kts | 96° |
| 2026-04-29 15:44 | 22.75533 | 87.20007 | 34740 ft | 463 kts | 96° |
| 2026-04-29 15:45 | 22.75119 | 87.26923 | 34746 ft | 462 kts | 96° |
| 2026-04-29 15:45 | 22.74705 | 87.33851 | 34743 ft | 461 kts | 96° |
| 2026-04-29 15:46 | 22.74286 | 87.40749 | 34746 ft | 462 kts | 96° |
| 2026-04-29 15:46 | 22.73867 | 87.47659 | 34745 ft | 461 kts | 96° |
| 2026-04-29 15:47 | 22.73441 | 87.54566 | 34746 ft | 461 kts | 96° |
| 2026-04-29 15:47 | 22.73015 | 87.61485 | 34751 ft | 460 kts | 96° |
| 2026-04-29 15:48 | 22.72586 | 87.68355 | 34755 ft | 460 kts | 96° |
| 2026-04-29 15:48 | 22.72158 | 87.75249 | 34760 ft | 458 kts | 97° |
| 2026-04-29 15:49 | 22.71725 | 87.82092 | 34754 ft | 457 kts | 96° |
| 2026-04-29 15:49 | 22.71290 | 87.88957 | 34748 ft | 457 kts | 97° |
| 2026-04-29 15:50 | 22.70851 | 87.95809 | 34746 ft | 457 kts | 96° |
| 2026-04-29 15:50 | 22.70412 | 88.02625 | 34751 ft | 456 kts | 96° |
| 2026-04-29 15:51 | 22.69970 | 88.09474 | 34752 ft | 458 kts | 96° |
| 2026-04-29 15:51 | 22.69523 | 88.16341 | 34583 ft | 459 kts | 96° |
| 2026-04-29 15:51 | 22.69300 | 88.19767 | 34306 ft | 458 kts | 97° |
| 2026-04-29 15:52 | 22.69075 | 88.23202 | 34029 ft | 457 kts | 97° |
| 2026-04-29 15:52 | 22.68850 | 88.26634 | 33748 ft | 456 kts | 97° |
| 2026-04-29 15:52 | 22.68624 | 88.30051 | 33473 ft | 455 kts | 97° |
| 2026-04-29 15:52 | 22.68394 | 88.33477 | 33197 ft | 458 kts | 97° |
| 2026-04-29 15:53 | 22.68296 | 88.36935 | 32917 ft | 463 kts | 91° |
| 2026-04-29 15:53 | 22.68505 | 88.40376 | 32660 ft | 467 kts | 85° |
| 2026-04-29 15:53 | 22.69038 | 88.43852 | 32402 ft | 471 kts | 79° |
| 2026-04-29 15:53 | 22.69894 | 88.47257 | 32110 ft | 473 kts | 73° |
| 2026-04-29 15:54 | 22.71078 | 88.50596 | 31725 ft | 472 kts | 67° |
| 2026-04-29 15:54 | 22.72538 | 88.53737 | 31000 ft | 474 kts | 61° |
| 2026-04-29 15:54 | 22.74230 | 88.56812 | 30268 ft | 478 kts | 59° |
| 2026-04-29 15:54 | 22.75978 | 88.59882 | 29575 ft | 480 kts | 59° |
| 2026-04-29 15:55 | 22.77745 | 88.62982 | 28909 ft | 482 kts | 59° |
| 2026-04-29 15:55 | 22.79486 | 88.66060 | 28407 ft | 481 kts | 59° |
| 2026-04-29 15:55 | 22.81222 | 88.69154 | 27902 ft | 480 kts | 59° |
| 2026-04-29 15:55 | 22.82929 | 88.72209 | 27391 ft | 471 kts | 60° |
| 2026-04-29 15:56 | 22.84599 | 88.75208 | 26863 ft | 466 kts | 60° |
| 2026-04-29 15:56 | 22.86264 | 88.78204 | 26030 ft | 466 kts | 59° |
| 2026-04-29 15:56 | 22.87936 | 88.81216 | 25159 ft | 464 kts | 59° |
| 2026-04-29 15:56 | 22.89564 | 88.84151 | 24661 ft | 451 kts | 59° |
| 2026-04-29 15:57 | 22.91173 | 88.87046 | 24358 ft | 444 kts | 59° |
| 2026-04-29 15:57 | 22.92769 | 88.89896 | 23956 ft | 441 kts | 58° |
| 2026-04-29 15:57 | 22.94418 | 88.92663 | 23825 ft | 439 kts | 57° |
| 2026-04-29 15:57 | 22.96106 | 88.95453 | 23758 ft | 439 kts | 57° |
| 2026-04-29 15:58 | 22.97778 | 88.98209 | 23303 ft | 435 kts | 57° |
| 2026-04-29 15:58 | 22.99430 | 89.00937 | 22648 ft | 432 kts | 57° |
| 2026-04-29 15:58 | 23.01059 | 89.03626 | 22085 ft | 428 kts | 57° |
| 2026-04-29 15:58 | 23.02681 | 89.06312 | 21724 ft | 417 kts | 57° |
| 2026-04-29 15:59 | 23.04249 | 89.08911 | 21409 ft | 410 kts | 57° |
| 2026-04-29 15:59 | 23.05804 | 89.11488 | 20929 ft | 408 kts | 57° |
| 2026-04-29 15:59 | 23.07340 | 89.14033 | 20574 ft | 405 kts | 57° |
| 2026-04-29 15:59 | 23.08889 | 89.16604 | 20230 ft | 402 kts | 57° |
| 2026-04-29 16:00 | 23.10407 | 89.19125 | 19904 ft | 397 kts | 56° |
| 2026-04-29 16:00 | 23.11918 | 89.21632 | 19819 ft | 395 kts | 56° |
| 2026-04-29 16:00 | 23.13393 | 89.24083 | 19816 ft | 388 kts | 57° |
| 2026-04-29 16:00 | 23.14873 | 89.26542 | 19822 ft | 386 kts | 56° |
| 2026-04-29 16:01 | 23.16364 | 89.29024 | 19821 ft | 396 kts | 56° |
| 2026-04-29 16:01 | 23.17866 | 89.31521 | 19813 ft | 399 kts | 57° |
| 2026-04-29 16:01 | 23.19390 | 89.34057 | 19812 ft | 400 kts | 56° |
| 2026-04-29 16:01 | 23.20897 | 89.36567 | 19812 ft | 400 kts | 56° |
| 2026-04-29 16:02 | 23.22426 | 89.39117 | 19812 ft | 400 kts | 56° |
| 2026-04-29 16:02 | 23.23933 | 89.41631 | 19810 ft | 400 kts | 56° |
| 2026-04-29 16:02 | 23.25457 | 89.44170 | 19806 ft | 400 kts | 56° |
| 2026-04-29 16:02 | 23.26987 | 89.46722 | 19805 ft | 400 kts | 56° |
| 2026-04-29 16:03 | 23.28502 | 89.49252 | 19812 ft | 399 kts | 56° |
| 2026-04-29 16:03 | 23.30016 | 89.51781 | 19814 ft | 400 kts | 56° |
| 2026-04-29 16:03 | 23.31529 | 89.54312 | 19811 ft | 399 kts | 56° |
| 2026-04-29 16:03 | 23.33044 | 89.56847 | 19814 ft | 399 kts | 56° |
| 2026-04-29 16:04 | 23.34548 | 89.59357 | 19809 ft | 399 kts | 55° |
| 2026-04-29 16:04 | 23.36170 | 89.61830 | 19806 ft | 398 kts | 52° |
| 2026-04-29 16:04 | 23.37816 | 89.64228 | 19813 ft | 399 kts | 52° |
| 2026-04-29 16:04 | 23.39485 | 89.66648 | 19810 ft | 399 kts | 52° |
| 2026-04-29 16:05 | 23.41150 | 89.69074 | 19812 ft | 399 kts | 53° |
| 2026-04-29 16:05 | 23.42792 | 89.71481 | 19756 ft | 396 kts | 53° |
| 2026-04-29 16:05 | 23.44414 | 89.73866 | 19490 ft | 392 kts | 53° |
| 2026-04-29 16:05 | 23.46039 | 89.76265 | 19082 ft | 391 kts | 53° |
| 2026-04-29 16:06 | 23.47642 | 89.78638 | 18683 ft | 390 kts | 53° |
| 2026-04-29 16:06 | 23.49254 | 89.81023 | 18334 ft | 387 kts | 53° |
| 2026-04-29 16:06 | 23.50838 | 89.83371 | 17993 ft | 384 kts | 52° |
| 2026-04-29 16:06 | 23.52410 | 89.85702 | 17642 ft | 381 kts | 52° |
| 2026-04-29 16:07 | 23.53971 | 89.88013 | 17269 ft | 378 kts | 52° |
| 2026-04-29 16:07 | 23.55001 | 89.89539 | 17024 ft | 376 kts | 52° |
| 2026-04-29 16:07 | 23.57067 | 89.92603 | 16502 ft | 375 kts | 52° |
| 2026-04-29 16:07 | 23.58610 | 89.94888 | 16141 ft | 373 kts | 52° |
| 2026-04-29 16:08 | 23.60147 | 89.97166 | 15803 ft | 369 kts | 52° |
| 2026-04-29 16:08 | 23.61648 | 89.99396 | 15449 ft | 367 kts | 52° |
| 2026-04-29 16:08 | 23.63152 | 90.01633 | 15048 ft | 365 kts | 52° |
| 2026-04-29 16:08 | 23.64644 | 90.03853 | 14694 ft | 363 kts | 52° |
| 2026-04-29 16:09 | 23.66185 | 90.06011 | 14356 ft | 359 kts | 44° |
| 2026-04-29 16:09 | 23.68212 | 90.07586 | 13962 ft | 353 kts | 22° |
| 2026-04-29 16:09 | 23.70516 | 90.08388 | 13581 ft | 349 kts | 12° |
| 2026-04-29 16:09 | 23.72893 | 90.08975 | 13189 ft | 347 kts | 10° |
| 2026-04-29 16:10 | 23.75246 | 90.09518 | 12821 ft | 344 kts | 9° |
| 2026-04-29 16:10 | 23.77583 | 90.10050 | 12420 ft | 343 kts | 9° |
| 2026-04-29 16:10 | 23.79921 | 90.10584 | 12005 ft | 343 kts | 10° |
| 2026-04-29 16:10 | 23.82261 | 90.11117 | 11624 ft | 342 kts | 10° |
| 2026-04-29 16:11 | 23.84586 | 90.11638 | 11262 ft | 340 kts | 10° |
| 2026-04-29 16:11 | 23.86905 | 90.12154 | 10894 ft | 338 kts | 9° |
| 2026-04-29 16:11 | 23.89206 | 90.12678 | 10607 ft | 332 kts | 10° |
| 2026-04-29 16:11 | 23.91401 | 90.13171 | 10387 ft | 320 kts | 9° |
| 2026-04-29 16:12 | 23.93553 | 90.13664 | 10199 ft | 309 kts | 10° |
| 2026-04-29 16:12 | 23.94944 | 90.13985 | 10121 ft | 304 kts | 9° |
| 2026-04-29 16:12 | 23.97684 | 90.14618 | 9815 ft | 300 kts | 9° |
| 2026-04-29 16:12 | 23.99734 | 90.15077 | 9524 ft | 299 kts | 10° |
| 2026-04-29 16:13 | 24.01791 | 90.15537 | 9213 ft | 299 kts | 9° |
| 2026-04-29 16:13 | 24.03817 | 90.15997 | 8879 ft | 299 kts | 10° |
| 2026-04-29 16:13 | 24.05869 | 90.16454 | 8664 ft | 298 kts | 10° |
| 2026-04-29 16:13 | 24.07877 | 90.16889 | 8474 ft | 292 kts | 10° |
| 2026-04-29 16:14 | 24.09869 | 90.17303 | 8212 ft | 288 kts | 10° |
| 2026-04-29 16:14 | 24.11756 | 90.17970 | 8067 ft | 283 kts | 32° |
| 2026-04-29 16:14 | 24.13160 | 90.19441 | 7853 ft | 277 kts | 59° |
| 2026-04-29 16:14 | 24.13771 | 90.21404 | 7576 ft | 276 kts | 86° |
| 2026-04-29 16:15 | 24.13493 | 90.23447 | 7193 ft | 274 kts | 112° |
| 2026-04-29 16:15 | 24.12673 | 90.25314 | 6781 ft | 272 kts | 118° |
| 2026-04-29 16:15 | 24.11560 | 90.26966 | 6281 ft | 271 kts | 142° |
| 2026-04-29 16:15 | 24.09905 | 90.27916 | 5697 ft | 266 kts | 164° |
| 2026-04-29 16:16 | 24.08156 | 90.28410 | 5350 ft | 254 kts | 169° |
| 2026-04-29 16:16 | 24.06451 | 90.28825 | 4965 ft | 248 kts | 169° |
| 2026-04-29 16:16 | 24.04785 | 90.29228 | 4661 ft | 241 kts | 169° |
| 2026-04-29 16:16 | 24.03170 | 90.29618 | 4299 ft | 238 kts | 169° |
| 2026-04-29 16:17 | 24.01579 | 90.29995 | 4036 ft | 228 kts | 169° |
| 2026-04-29 16:17 | 24.00057 | 90.30353 | 3803 ft | 215 kts | 169° |
| 2026-04-29 16:17 | 23.98626 | 90.30688 | 3586 ft | 204 kts | 169° |
| 2026-04-29 16:17 | 23.97286 | 90.31000 | 3397 ft | 193 kts | 169° |
| 2026-04-29 16:18 | 23.95996 | 90.31298 | 3232 ft | 183 kts | 169° |
| 2026-04-29 16:18 | 23.94811 | 90.31733 | 3032 ft | 175 kts | 157° |
| 2026-04-29 16:18 | 23.93750 | 90.32368 | 2632 ft | 175 kts | 150° |
| 2026-04-29 16:18 | 23.92730 | 90.33105 | 2215 ft | 176 kts | 146° |
| 2026-04-29 16:19 | 23.91753 | 90.33879 | 1858 ft | 174 kts | 146° |
| 2026-04-29 16:19 | 23.90783 | 90.34652 | 1583 ft | 167 kts | 146° |
| 2026-04-29 16:19 | 23.89869 | 90.35390 | 1379 ft | 157 kts | 147° |
| 2026-04-29 16:19 | 23.88996 | 90.36080 | 1136 ft | 152 kts | 146° |
| 2026-04-29 16:20 | 23.88143 | 90.36755 | 847 ft | 151 kts | 145° |
| 2026-04-29 16:20 | 23.87298 | 90.37437 | 524 ft | 152 kts | 144° |
| 2026-04-29 16:20 | 23.86450 | 90.38103 | 304 ft | 148 kts | 145° |
| 2026-04-29 16:20 | 23.85626 | 90.38753 | 120 ft | 145 kts | 143° |
| 2026-04-29 16:21 | 23.84855 | 90.39369 | 50 ft | 112 kts | 146° |
| 2026-04-29 16:21 | 23.84463 | 90.39677 | 49 ft | 25 kts | 144° |
| 2026-04-29 16:21 | 23.84354 | 90.39763 | 50 ft | 26 kts | 143° |
| 2026-04-29 16:21 | 23.84175 | 90.39908 | 52 ft | 32 kts | 142° |
| 2026-04-29 16:22 | 23.84045 | 90.40093 | 51 ft | 30 kts | 114° |
| 2026-04-29 16:22 | 23.83990 | 90.40290 | 49 ft | 23 kts | 86° |
| 2026-04-29 16:22 | 23.84005 | 90.40368 | 49 ft | 3 kts | 74° |
| 2026-04-29 16:22 | 23.84012 | 90.40389 | 49 ft | 3 kts | 73° |
| 2026-04-29 16:23 | 23.84022 | 90.40420 | 49 ft | 6 kts | 64° |
| 2026-04-29 16:23 | 23.84056 | 90.40474 | 50 ft | 9 kts | 53° |
| 2026-04-29 16:23 | 23.84097 | 90.40533 | 51 ft | 10 kts | 53° |
| 2026-04-29 16:23 | 23.84155 | 90.40575 | 51 ft | 11 kts | 357° |
| 2026-04-29 16:24 | 23.84230 | 90.40531 | 51 ft | 12 kts | 325° |
| 2026-04-29 16:24 | 23.84306 | 90.40472 | 50 ft | 13 kts | 324° |
| 2026-04-29 16:24 | 23.84384 | 90.40408 | 51 ft | 14 kts | 323° |
| 2026-04-29 16:24 | 23.84466 | 90.40342 | 51 ft | 13 kts | 323° |
| 2026-04-29 16:25 | 23.84527 | 90.40294 | 53 ft | 8 kts | 324° |
| 2026-04-29 16:25 | 23.84577 | 90.40254 | 54 ft | 7 kts | 324° |
| 2026-04-29 16:25 | 23.84610 | 90.40235 | 54 ft | 6 kts | 352° |
| 2026-04-29 16:25 | 23.84661 | 90.40267 | 55 ft | 9 kts | 50° |
| 2026-04-29 16:26 | 23.84693 | 90.40308 | 56 ft | 5 kts | 36° |
| 2026-04-29 16:26 | 23.84739 | 90.40305 | 56 ft | 8 kts | 335° |
| 2026-04-29 16:26 | 23.84771 | 90.40286 | 55 ft | 2 kts | 333° |
| 2026-04-29 16:26 | 23.84807 | 90.40297 | 55 ft | 7 kts | 39° |
| 2026-04-29 16:27 | 23.84825 | 90.40319 | 56 ft | 2 kts | 52° |
| 2026-04-29 16:27 | 23.84832 | 90.40329 | 56 ft | 0 kts | 53° |
| 2026-04-29 16:27 | 23.84834 | 90.40333 | 57 ft | 0 kts | 53° |
| 2026-04-29 16:27 | 23.84837 | 90.40337 | 57 ft | 0 kts | 53° |
| 2026-04-29 16:28 | 23.84838 | 90.40338 | 57 ft | 0 kts | 53° |